PORTS® Data Listing: 8775237 Port Aransas, TX

CO-OPS RAW PORTS DATA

************************      PRELIMINARY DATA      ************************** 

     THIS RAW DATA HAS NOT BEEN SUBJECT TO THE NATIONAL OCEAN SERVICE'S        
     QUALITY CONTROL OR QUALITY ASSURANCE PROCEDURES AND DOES NOT MEET         
     THE CRITERIA AND STANDARDS OF OFFICIAL NATIONAL OCEAN SERVICE             
     DATA.  IT IS RELEASED FOR LIMITED PUBLIC USE AS PRELIMINARY DATA TO       
     BE USED ONLY WITH APPROPRIATE CAUTION.                                    

************************      PRELIMINARY DATA      ************************** 


       CD   -   Calendar date
       T    -   Time
       TZ   -   Timezone
       PW   -   Predicted water level (feet above MLLW)
       OW   -   Observed water level (feet above MLLW)
       WS   -   Wind speed (knots)
       WD   -   Wind direction (degrees true)
       WG   -   Wind gust (knots)
       AT   -   Air temperature (degrees farenheit)
       WT   -   Water temperature (degrees farenheit)
       AP   -   Air pressure (millibars)
       SA   -   Salinty (PSU - Practical Salinity Units)
       SG   -   Specific gravity
       RH   -   Relative humidity
       AG   -   Air gap (feet)
       VI   -   Visibility (nautical miles)

       ** NOTE **
       A variable that has its data fields filled with "9"s, indicates that
       data was not collected for that sample period.
       **********


STATION NAME: Port Aransas (8775237)
****************************************************************************************************
    CD       T    TZ    PW     OW    WS   WD   WG    AT    WT    AP    SA    SG     RH    AG   VI
****************************************************************************************************
2020/02/13 17:00 CST    0.80   0.82   13   29   16  60.4  63.1 1021.5 -9.9 -9.999 -99.9 -99.99 -9.99
2020/02/13 17:06 CST    0.80   0.83   13   27   15  60.4  63.1 1021.5 -9.9 -9.999 -99.9 -99.99 -9.99
2020/02/13 17:12 CST    0.81   0.80   12   26   14  60.4  63.1 1021.6 -9.9 -9.999 -99.9 -99.99 -9.99
2020/02/13 17:18 CST    0.81   0.78   12   15   14  60.4  63.1 1021.7 -9.9 -9.999 -99.9 -99.99 -9.99
2020/02/13 17:24 CST    0.81   0.76   10   16   14  60.6  63.1 1021.8 -9.9 -9.999 -99.9 -99.99 -9.99
2020/02/13 17:30 CST    0.82   0.76   10   22   13  60.6  63.1 1021.9 -9.9 -9.999 -99.9 -99.99 -9.99
2020/02/13 17:36 CST    0.82   0.79   13   21   15  60.3  63.1 1021.9 -9.9 -9.999 -99.9 -99.99 -9.99
2020/02/13 17:42 CST    0.82   0.81   11   17   15  60.1  63.1 1022.0 -9.9 -9.999 -99.9 -99.99 -9.99
2020/02/13 17:48 CST    0.82   0.82   11   19   14  59.9  63.1 1022.0 -9.9 -9.999 -99.9 -99.99 -9.99
2020/02/13 17:54 CST    0.82   0.82   11   26   15  59.7  63.1 1022.0 -9.9 -9.999 -99.9 -99.99 -9.99
2020/02/13 18:00 CST    0.81   0.83   10   23   12  59.5  63.1 1022.1 -9.9 -9.999 -99.9 -99.99 -9.99
2020/02/13 18:06 CST    0.81   0.62   13   38   14  59.2  63.1 1022.2 -9.9 -9.999 -99.9 -99.99 -9.99
2020/02/13 18:12 CST    0.81   0.72   11   36   14  59.0  63.1 1022.3 -9.9 -9.999 -99.9 -99.99 -9.99
2020/02/13 18:18 CST    0.80   0.77   12   34   15  58.5  63.0 1022.3 -9.9 -9.999 -99.9 -99.99 -9.99
2020/02/13 18:24 CST    0.80   0.73   14   37   16  58.3  63.0 1022.4 -9.9 -9.999 -99.9 -99.99 -9.99
2020/02/13 18:30 CST    0.79   0.73   13   38   16  57.9  63.0 1022.5 -9.9 -9.999 -99.9 -99.99 -9.99
2020/02/13 18:36 CST    0.79   0.73   12   35   15  57.7  63.0 1022.6 -9.9 -9.999 -99.9 -99.99 -9.99
2020/02/13 18:42 CST    0.78   0.71   12   33   16  57.6  63.0 1022.7 -9.9 -9.999 -99.9 -99.99 -9.99
2020/02/13 18:48 CST    0.78   0.72   15   37   17  57.2  63.0 1022.6 -9.9 -9.999 -99.9 -99.99 -9.99
2020/02/13 18:54 CST    0.77   0.74   14   36   17  57.0  63.0 1022.8 -9.9 -9.999 -99.9 -99.99 -9.99
2020/02/13 19:00 CST    0.76   0.74   13   34   16  56.8  63.0 1022.9 -9.9 -9.999 -99.9 -99.99 -9.99
2020/02/13 19:06 CST    0.75   0.72   15   37   18  56.8  63.0 1022.9 -9.9 -9.999 -99.9 -99.99 -9.99
2020/02/13 19:12 CST    0.75   0.69   14   34   19  56.5  62.8 1023.1 -9.9 -9.999 -99.9 -99.99 -9.99
2020/02/13 19:18 CST    0.74   0.69   14   30   17  56.3  62.6 1023.1 -9.9 -9.999 -99.9 -99.99 -9.99
2020/02/13 19:24 CST    0.73   0.69   14   29   17  56.1  62.4 1023.3 -9.9 -9.999 -99.9 -99.99 -9.99
2020/02/13 19:30 CST    0.72   0.73   13   29   16  55.8  62.2 1023.4 -9.9 -9.999 -99.9 -99.99 -9.99
2020/02/13 19:36 CST    0.71   0.74   13   29   17  55.6  62.1 1023.6 -9.9 -9.999 -99.9 -99.99 -9.99
2020/02/13 19:42 CST    0.70   0.73   13   29   15  55.4  62.1 1023.7 -9.9 -9.999 -99.9 -99.99 -9.99
2020/02/13 19:48 CST    0.70   0.71   13   31   16  55.2  62.1 1023.9 -9.9 -9.999 -99.9 -99.99 -9.99
2020/02/13 19:54 CST    0.69   0.69   13   30   16  55.0  62.1 1024.1 -9.9 -9.999 -99.9 -99.99 -9.99
2020/02/13 20:00 CST    0.68   0.65   13   30   16  54.9  62.1 1024.1 -9.9 -9.999 -99.9 -99.99 -9.99
2020/02/13 20:06 CST    0.67   0.62   13   28   17  54.7  62.1 1024.2 -9.9 -9.999 -99.9 -99.99 -9.99
2020/02/13 20:12 CST    0.66   0.61   15   31   17  54.7  61.9 1024.4 -9.9 -9.999 -99.9 -99.99 -9.99
2020/02/13 20:18 CST    0.65   0.61   15   30   17  54.5  61.9 1024.4 -9.9 -9.999 -99.9 -99.99 -9.99
2020/02/13 20:24 CST    0.64   0.62   15   30   18  54.5  61.9 1024.5 -9.9 -9.999 -99.9 -99.99 -9.99
2020/02/13 20:30 CST    0.64   0.61   15   32   17  54.3  61.9 1024.7 -9.9 -9.999 -99.9 -99.99 -9.99
2020/02/13 20:36 CST    0.63   0.60   13   33   17  54.3  61.9 1024.8 -9.9 -9.999 -99.9 -99.99 -9.99
2020/02/13 20:42 CST    0.62   0.58   14   32   18  54.0  61.7 1024.9 -9.9 -9.999 -99.9 -99.99 -9.99
2020/02/13 20:48 CST    0.61   0.55   13   31   16  54.0  61.7 1025.0 -9.9 -9.999 -99.9 -99.99 -9.99
2020/02/13 20:54 CST    0.60   0.55   12   33   16  53.6  61.7 1025.1 -9.9 -9.999 -99.9 -99.99 -9.99
2020/02/13 21:00 CST    0.59   0.55   14   32   17  54.0  61.7 1025.2 -9.9 -9.999 -99.9 -99.99 -9.99
2020/02/13 21:06 CST    0.58   0.52   13   31   17  53.8  61.7 1025.2 -9.9 -9.999 -99.9 -99.99 -9.99
2020/02/13 21:12 CST    0.57   0.51   14   31   16  53.6  61.7 1025.4 -9.9 -9.999 -99.9 -99.99 -9.99
2020/02/13 21:18 CST    0.56   0.47   12   28   15  53.2  61.7 1025.5 -9.9 -9.999 -99.9 -99.99 -9.99
2020/02/13 21:24 CST    0.55   0.42   11   27   14  53.2  61.7 1025.6 -9.9 -9.999 -99.9 -99.99 -9.99
2020/02/13 21:30 CST    0.54   0.41   12   25   17  53.2  61.7 1025.6 -9.9 -9.999 -99.9 -99.99 -9.99
2020/02/13 21:36 CST    0.53   0.43   10   22   14  52.9  61.7 1025.7 -9.9 -9.999 -99.9 -99.99 -9.99
2020/02/13 21:42 CST    0.52   0.45   10   21   12  52.7  61.5 1025.6 -9.9 -9.999 -99.9 -99.99 -9.99
2020/02/13 21:48 CST    0.51   0.47   10   23   12  52.7  61.5 1025.7 -9.9 -9.999 -99.9 -99.99 -9.99
2020/02/13 21:54 CST    0.49   0.47   10   22   12  52.5  61.5 1025.8 -9.9 -9.999 -99.9 -99.99 -9.99
2020/02/13 22:00 CST    0.48   0.44   11   23   13  52.5  61.5 1025.8 -9.9 -9.999 -99.9 -99.99 -9.99
2020/02/13 22:06 CST    0.47   0.41   11   26   13  52.3  61.5 1025.9 -9.9 -9.999 -99.9 -99.99 -9.99
2020/02/13 22:12 CST    0.46   0.37   12   27   14  52.5  61.5 1026.1 -9.9 -9.999 -99.9 -99.99 -9.99
2020/02/13 22:18 CST    0.45   0.34   12   26   14  52.2  61.5 1026.1 -9.9 -9.999 -99.9 -99.99 -9.99
2020/02/13 22:24 CST    0.44   0.33   13   24   16  52.2  61.5 1026.2 -9.9 -9.999 -99.9 -99.99 -9.99
2020/02/13 22:30 CST    0.43   0.33   13   23   18  52.2  61.5 1026.1 -9.9 -9.999 -99.9 -99.99 -9.99
2020/02/13 22:36 CST    0.42   0.34   14   25   17  52.0  61.5 1026.2 -9.9 -9.999 -99.9 -99.99 -9.99
2020/02/13 22:42 CST    0.41   0.34   16   20   20  52.0  61.5 1026.2 -9.9 -9.999 -99.9 -99.99 -9.99
2020/02/13 22:48 CST    0.41   0.36   16   25   18  52.0  61.5 1026.2 -9.9 -9.999 -99.9 -99.99 -9.99
2020/02/13 22:54 CST    0.40   0.36   13   21   17  51.6  61.5 1026.3 -9.9 -9.999 -99.9 -99.99 -9.99
2020/02/13 23:00 CST    0.39   0.35   14   21   18  51.8  61.5 1026.3 -9.9 -9.999 -99.9 -99.99 -9.99
2020/02/13 23:06 CST    0.38   0.35   14   20   18  51.6  61.5 1026.3 -9.9 -9.999 -99.9 -99.99 -9.99
2020/02/13 23:12 CST    0.38   0.33   13   20   17  51.4  61.3 1026.4 -9.9 -9.999 -99.9 -99.99 -9.99
2020/02/13 23:18 CST    0.37   0.30   14   20   18  51.4  61.3 1026.4 -9.9 -9.999 -99.9 -99.99 -9.99
2020/02/13 23:24 CST    0.36   0.30   13   20   17  51.3  61.3 1026.5 -9.9 -9.999 -99.9 -99.99 -9.99
2020/02/13 23:30 CST    0.36   0.31   14   21   18  51.3  61.3 1026.5 -9.9 -9.999 -99.9 -99.99 -9.99
2020/02/13 23:36 CST    0.35   0.32   13   22   17  51.1  61.3 1026.6 -9.9 -9.999 -99.9 -99.99 -9.99
2020/02/13 23:42 CST    0.35   0.33   14   20   17  51.1  61.3 1026.6 -9.9 -9.999 -99.9 -99.99 -9.99
2020/02/13 23:48 CST    0.34   0.34   12   21   17  50.9  61.3 1026.7 -9.9 -9.999 -99.9 -99.99 -9.99
2020/02/13 23:54 CST    0.34   0.35   12   20   15  50.9  61.3 1026.7 -9.9 -9.999 -99.9 -99.99 -9.99
2020/02/14 00:00 CST    0.34   0.34   13   15   19  50.7  61.3 1026.8 -9.9 -9.999 -99.9 -99.99 -9.99
2020/02/14 00:06 CST    0.33   0.34   14   20   17  50.7  61.3 1026.8 -9.9 -9.999 -99.9 -99.99 -9.99
2020/02/14 00:12 CST    0.33   0.33   13   17   17  50.5  61.3 1026.7 -9.9 -9.999 -99.9 -99.99 -9.99
2020/02/14 00:18 CST    0.33   0.33   12   17   17  50.2  61.3 1026.8 -9.9 -9.999 -99.9 -99.99 -9.99
2020/02/14 00:24 CST    0.33   0.31   14   16   17  50.4  61.3 1026.7 -9.9 -9.999 -99.9 -99.99 -9.99
2020/02/14 00:30 CST    0.32   0.31   13   15   16  50.0  61.3 1026.7 -9.9 -9.999 -99.9 -99.99 -9.99
2020/02/14 00:36 CST    0.32   0.30   14   19   18  50.0  61.3 1026.7 -9.9 -9.999 -99.9 -99.99 -9.99
2020/02/14 00:42 CST    0.32   0.28   15   17   18  50.0  61.3 1026.7 -9.9 -9.999 -99.9 -99.99 -9.99
2020/02/14 00:48 CST    0.32   0.28   15   19   18  49.8  61.3 1026.7 -9.9 -9.999 -99.9 -99.99 -9.99
2020/02/14 00:54 CST    0.32   0.29   16   19   19  49.6  61.3 1026.8 -9.9 -9.999 -99.9 -99.99 -9.99
2020/02/14 01:00 CST    0.32   0.29   15   18   20  49.5  61.3 1026.7 -9.9 -9.999 -99.9 -99.99 -9.99
2020/02/14 01:06 CST    0.32   0.29   15   16   18  49.5  61.3 1026.7 -9.9 -9.999 -99.9 -99.99 -9.99
2020/02/14 01:12 CST    0.32   0.28   16   17   19  49.1  61.3 1026.8 -9.9 -9.999 -99.9 -99.99 -9.99
2020/02/14 01:18 CST    0.32   0.28   14   17   17  48.9  61.3 1026.9 -9.9 -9.999 -99.9 -99.99 -9.99
2020/02/14 01:24 CST    0.33   0.28   14   21   18  48.9  61.3 1026.8 -9.9 -9.999 -99.9 -99.99 -9.99
2020/02/14 01:30 CST    0.33   0.28   15   17   20  48.6  61.3 1026.8 -9.9 -9.999 -99.9 -99.99 -9.99
2020/02/14 01:36 CST    0.33   0.30   15   18   19  48.6  61.3 1026.8 -9.9 -9.999 -99.9 -99.99 -9.99
2020/02/14 01:42 CST    0.34   0.32   14   21   19  48.4  61.3 1026.8 -9.9 -9.999 -99.9 -99.99 -9.99
2020/02/14 01:48 CST    0.34   0.31   15   17   18  48.2  61.3 1026.9 -9.9 -9.999 -99.9 -99.99 -9.99
2020/02/14 01:54 CST    0.35   0.30   14   21   18  48.2  61.3 1026.9 -9.9 -9.999 -99.9 -99.99 -9.99
2020/02/14 02:00 CST    0.35   0.30   15   19   18  48.2  61.3 1026.9 -9.9 -9.999 -99.9 -99.99 -9.99
2020/02/14 02:06 CST    0.36   0.30   15   18   17  48.0  61.3 1026.9 -9.9 -9.999 -99.9 -99.99 -9.99
2020/02/14 02:12 CST    0.37   0.33   14   14   17  48.0  61.3 1026.8 -9.9 -9.999 -99.9 -99.99 -9.99
2020/02/14 02:18 CST    0.38   0.35   13   16   17  48.0  61.3 1026.8 -9.9 -9.999 -99.9 -99.99 -9.99
2020/02/14 02:24 CST    0.38   0.38   15   18   18  47.8  61.3 1026.7 -9.9 -9.999 -99.9 -99.99 -9.99
2020/02/14 02:30 CST    0.39   0.38   14   15   18  47.7  61.3 1026.7 -9.9 -9.999 -99.9 -99.99 -9.99
2020/02/14 02:36 CST    0.40   0.38   15   17   19  47.7  61.3 1026.7 -9.9 -9.999 -99.9 -99.99 -9.99
2020/02/14 02:42 CST    0.41   0.39   14   18   18  47.5  61.3 1026.8 -9.9 -9.999 -99.9 -99.99 -9.99
2020/02/14 02:48 CST    0.42   0.42   15   18   18  47.3  61.3 1026.8 -9.9 -9.999 -99.9 -99.99 -9.99
2020/02/14 02:54 CST    0.44   0.44   14   19   18  47.1  61.3 1026.7 -9.9 -9.999 -99.9 -99.99 -9.99
2020/02/14 03:00 CST    0.45   0.44   15   22   18  47.3  61.3 1026.7 -9.9 -9.999 -99.9 -99.99 -9.99
2020/02/14 03:06 CST    0.46   0.43   15   22   19  47.1  61.2 1026.7 -9.9 -9.999 -99.9 -99.99 -9.99
2020/02/14 03:12 CST    0.47   0.42   14   24   18  46.8  61.2 1026.8 -9.9 -9.999 -99.9 -99.99 -9.99
2020/02/14 03:18 CST    0.48   0.44   15   25   18  46.9  61.2 1026.8 -9.9 -9.999 -99.9 -99.99 -9.99
2020/02/14 03:24 CST    0.50   0.47   14   23   16  46.8  61.2 1026.8 -9.9 -9.999 -99.9 -99.99 -9.99
2020/02/14 03:30 CST    0.51   0.50   14   25   18  46.9  61.2 1026.8 -9.9 -9.999 -99.9 -99.99 -9.99
2020/02/14 03:36 CST    0.52   0.53   14   21   17  46.9  61.2 1026.9 -9.9 -9.999 -99.9 -99.99 -9.99
2020/02/14 03:42 CST    0.53   0.56   14   19   18  46.9  61.2 1026.9 -9.9 -9.999 -99.9 -99.99 -9.99
2020/02/14 03:48 CST    0.55   0.57   13   21   17  46.8  61.2 1026.9 -9.9 -9.999 -99.9 -99.99 -9.99
2020/02/14 03:54 CST    0.56   0.58   15   24   18  46.9  61.2 1027.0 -9.9 -9.999 -99.9 -99.99 -9.99
2020/02/14 04:00 CST    0.57   0.59   15   20   19  46.8  61.0 1027.0 -9.9 -9.999 -99.9 -99.99 -9.99
2020/02/14 04:06 CST    0.59   0.60   16   20   19  46.8  61.0 1026.9 -9.9 -9.999 -99.9 -99.99 -9.99
2020/02/14 04:12 CST    0.60   0.61   14   20   20  46.6  61.0 1027.0 -9.9 -9.999 -99.9 -99.99 -9.99
2020/02/14 04:18 CST    0.61   0.62   16   17   20  46.8  61.0 1027.0 -9.9 -9.999 -99.9 -99.99 -9.99
2020/02/14 04:24 CST    0.63   0.62   13   20   18  46.9  61.0 1027.1 -9.9 -9.999 -99.9 -99.99 -9.99
2020/02/14 04:30 CST    0.64   0.64   15   19   18  46.8  61.0 1027.0 -9.9 -9.999 -99.9 -99.99 -9.99
2020/02/14 04:36 CST    0.65   0.66   16   20   20  46.8  61.0 1027.0 -9.9 -9.999 -99.9 -99.99 -9.99
2020/02/14 04:42 CST    0.67   0.66   15   19   19  46.9  60.8 1027.0 -9.9 -9.999 -99.9 -99.99 -9.99
2020/02/14 04:48 CST    0.68   0.69   16   21   21  46.9  60.6 1026.9 -9.9 -9.999 -99.9 -99.99 -9.99
2020/02/14 04:54 CST    0.69   0.72   17   20   21  46.9  60.6 1027.0 -9.9 -9.999 -99.9 -99.99 -9.99
2020/02/14 05:00 CST    0.70   0.73   15   16   20  46.8  60.6 1026.9 -9.9 -9.999 -99.9 -99.99 -9.99
2020/02/14 05:06 CST    0.72   0.76   17   21   21  46.8  60.4 1027.0 -9.9 -9.999 -99.9 -99.99 -9.99
2020/02/14 05:12 CST    0.73   0.77   16   20   21  46.6  60.4 1027.0 -9.9 -9.999 -99.9 -99.99 -9.99
2020/02/14 05:18 CST    0.74   0.79   16   21   22  46.6  60.4 1027.0 -9.9 -9.999 -99.9 -99.99 -9.99
2020/02/14 05:24 CST    0.75   0.83   16   21   20  46.4  60.4 1027.1 -9.9 -9.999 -99.9 -99.99 -9.99
2020/02/14 05:30 CST    0.76   0.87   17   21   20  46.4  60.3 1027.1 -9.9 -9.999 -99.9 -99.99 -9.99
2020/02/14 05:36 CST    0.77   0.92   17   21   20  46.4  60.3 1027.1 -9.9 -9.999 -99.9 -99.99 -9.99
2020/02/14 05:42 CST    0.78   0.94   16   24   20  46.2  60.3 1027.1 -9.9 -9.999 -99.9 -99.99 -9.99
2020/02/14 05:48 CST    0.79   0.96   16   20   19  46.0  60.3 1027.2 -9.9 -9.999 -99.9 -99.99 -9.99
2020/02/14 05:54 CST    0.80   0.97   18   22   22  46.0  60.3 1027.2 -9.9 -9.999 -99.9 -99.99 -9.99
2020/02/14 06:00 CST    0.81   0.97   16   23   21  46.0  60.3 1027.3 -9.9 -9.999 -99.9 -99.99 -9.99
2020/02/14 06:06 CST    0.82   0.98   14   19   18  45.9  60.3 1027.5 -9.9 -9.999 -99.9 -99.99 -9.99
2020/02/14 06:12 CST    0.83   1.00   16   20   18  45.7  60.3 1027.6 -9.9 -9.999 -99.9 -99.99 -9.99
2020/02/14 06:18 CST    0.83   1.01   14   19   18  45.7  60.3 1027.7 -9.9 -9.999 -99.9 -99.99 -9.99
2020/02/14 06:24 CST    0.84   1.02   12   22   18  45.7  60.3 1027.7 -9.9 -9.999 -99.9 -99.99 -9.99
2020/02/14 06:30 CST    0.85   1.03   15   24   18  45.9  60.3 1027.8 -9.9 -9.999 -99.9 -99.99 -9.99
2020/02/14 06:36 CST    0.85   1.01   13   21   17  45.7  60.1 1027.9 -9.9 -9.999 -99.9 -99.99 -9.99
2020/02/14 06:42 CST    0.86   1.01   12   17   16  45.5  60.1 1028.1 -9.9 -9.999 -99.9 -99.99 -9.99
2020/02/14 06:48 CST    0.86   1.02   13   19   17  45.5  60.1 1028.3 -9.9 -9.999 -99.9 -99.99 -9.99
2020/02/14 06:54 CST    0.87   1.02   12   18   17  45.5  60.1 1028.4 -9.9 -9.999 -99.9 -99.99 -9.99
2020/02/14 07:00 CST    0.87   1.00   11   23   16  45.5  60.1 1028.5 -9.9 -9.999 -99.9 -99.99 -9.99
2020/02/14 07:06 CST    0.87   0.97   12   22   15  45.5  60.1 1028.5 -9.9 -9.999 -99.9 -99.99 -9.99
2020/02/14 07:12 CST    0.87   0.96   11   17   14  45.7  60.1 1028.7 -9.9 -9.999 -99.9 -99.99 -9.99
2020/02/14 07:18 CST    0.88   0.96   12   19   15  45.5  60.1 1028.8 -9.9 -9.999 -99.9 -99.99 -9.99
2020/02/14 07:24 CST    0.88   0.97   11   16   13  45.3  60.1 1028.8 -9.9 -9.999 -99.9 -99.99 -9.99
2020/02/14 07:30 CST    0.88   1.00   12   18   15  45.5  60.1 1028.9 -9.9 -9.999 -99.9 -99.99 -9.99
2020/02/14 07:36 CST    0.88   1.00   12   18   15  45.5  60.1 1029.0 -9.9 -9.999 -99.9 -99.99 -9.99
2020/02/14 07:42 CST    0.88   1.08   12   18   15  45.5  60.1 1029.1 -9.9 -9.999 -99.9 -99.99 -9.99
2020/02/14 07:48 CST    0.88   1.07   11   20   15  45.9  60.1 1029.3 -9.9 -9.999 -99.9 -99.99 -9.99
2020/02/14 07:54 CST    0.88   0.81   12   20   16  46.0  60.1 1029.4 -9.9 -9.999 -99.9 -99.99 -9.99
2020/02/14 08:00 CST    0.88   1.15   11   18   14  46.4  60.1 1029.5 -9.9 -9.999 -99.9 -99.99 -9.99
2020/02/14 08:06 CST    0.88   0.74   12   23   14  46.0  60.1 1029.5 -9.9 -9.999 -99.9 -99.99 -9.99
2020/02/14 08:12 CST    0.88   1.00   12   20   16  46.2  60.8 1029.5 -9.9 -9.999 -99.9 -99.99 -9.99
2020/02/14 08:18 CST    0.88   1.03   12   22   15  46.2  60.8 1029.6 -9.9 -9.999 -99.9 -99.99 -9.99
2020/02/14 08:24 CST    0.88   1.08   13   16   16  46.2  60.8 1029.7 -9.9 -9.999 -99.9 -99.99 -9.99
2020/02/14 08:30 CST    0.88   1.15   12   16   16  46.4  60.8 1029.8 -9.9 -9.999 -99.9 -99.99 -9.99
2020/02/14 08:36 CST    0.88   0.98   12   18   16  46.4  60.8 1029.8 -9.9 -9.999 -99.9 -99.99 -9.99
2020/02/14 08:42 CST    0.87   0.65   14   18   18  46.4  60.6 1029.8 -9.9 -9.999 -99.9 -99.99 -9.99
2020/02/14 08:48 CST    0.87   0.98   11   21   17  46.4  60.8 1029.8 -9.9 -9.999 -99.9 -99.99 -9.99
2020/02/14 08:54 CST    0.87   1.06   14   12   16  46.4  61.0 1029.9 -9.9 -9.999 -99.9 -99.99 -9.99
2020/02/14 09:00 CST    0.87   1.05   13   17   17  46.6  61.0 1029.9 -9.9 -9.999 -99.9 -99.99 -9.99
2020/02/14 09:06 CST    0.87   0.96   14   15   17  46.6  61.0 1030.0 -9.9 -9.999 -99.9 -99.99 -9.99
2020/02/14 09:12 CST    0.86   1.01   14   14   17  46.4  61.0 1030.0 -9.9 -9.999 -99.9 -99.99 -9.99
2020/02/14 09:18 CST    0.86   0.96   13   23   17  46.6  61.0 1030.1 -9.9 -9.999 -99.9 -99.99 -9.99
2020/02/14 09:24 CST    0.86   0.99   13   23   17  46.9  61.0 1030.1 -9.9 -9.999 -99.9 -99.99 -9.99
2020/02/14 09:30 CST    0.85   0.96   14   18   16  46.6  61.0 1030.0 -9.9 -9.999 -99.9 -99.99 -9.99
2020/02/14 09:36 CST    0.85   1.01   15   19   17  46.9  61.2 1030.2 -9.9 -9.999 -99.9 -99.99 -9.99
2020/02/14 09:42 CST    0.84   0.99   12   18   16  47.1  61.2 1030.2 -9.9 -9.999 -99.9 -99.99 -9.99
2020/02/14 09:48 CST    0.84   1.00   12   26   17  47.1  61.2 1030.3 -9.9 -9.999 -99.9 -99.99 -9.99
2020/02/14 09:54 CST    0.83   0.99   14   26   16  46.8  61.2 1030.4 -9.9 -9.999 -99.9 -99.99 -9.99
2020/02/14 10:00 CST    0.82   0.99   13   21   16  47.5  61.2 1030.3 -9.9 -9.999 -99.9 -99.99 -9.99
2020/02/14 10:06 CST    0.82   0.97   11   18   16  48.0  61.2 1030.4 -9.9 -9.999 -99.9 -99.99 -9.99
2020/02/14 10:12 CST    0.81   1.04   12   18   15  48.2  61.2 1030.3 -9.9 -9.999 -99.9 -99.99 -9.99
2020/02/14 10:18 CST    0.81   1.11   11   21   14  48.4  61.2 1030.5 -9.9 -9.999 -99.9 -99.99 -9.99
2020/02/14 10:24 CST    0.80   0.74   11   19   14  48.2  61.2 1030.4 -9.9 -9.999 -99.9 -99.99 -9.99
2020/02/14 10:30 CST    0.79   0.76   12   18   14  48.7  61.2 1030.4 -9.9 -9.999 -99.9 -99.99 -9.99
2020/02/14 10:36 CST    0.79   1.05   12   22   15  48.9  61.3 1030.3 -9.9 -9.999 -99.9 -99.99 -9.99
2020/02/14 10:42 CST    0.78   0.98   12   30   18  49.1  61.3 1030.4 -9.9 -9.999 -99.9 -99.99 -9.99
2020/02/14 10:48 CST    0.77   1.00   14   33   18  49.5  61.3 1030.3 -9.9 -9.999 -99.9 -99.99 -9.99
2020/02/14 10:54 CST    0.77   1.02   11   21   17  49.5  61.3 1030.1 -9.9 -9.999 -99.9 -99.99 -9.99
2020/02/14 11:00 CST    0.76   0.98   14   34   19  49.6  61.3 1030.1 -9.9 -9.999 -99.9 -99.99 -9.99
2020/02/14 11:06 CST    0.75   0.97   13   24   15  50.7  61.3 1030.1 -9.9 -9.999 -99.9 -99.99 -9.99
2020/02/14 11:12 CST    0.75   0.95   13   32   17  50.2  61.3 1030.0 -9.9 -9.999 -99.9 -99.99 -9.99
2020/02/14 11:18 CST    0.74   1.10   15   37   18  50.5  61.5 1030.1 -9.9 -9.999 -99.9 -99.99 -9.99
2020/02/14 11:24 CST    0.74   1.10   13   33   16  50.5  61.5 1030.0 -9.9 -9.999 -99.9 -99.99 -9.99
2020/02/14 11:30 CST    0.73   1.00   12   35   18  50.7  61.5 1029.9 -9.9 -9.999 -99.9 -99.99 -9.99
2020/02/14 11:36 CST    0.73   1.01   15   37   18  50.7  61.5 1029.8 -9.9 -9.999 -99.9 -99.99 -9.99
2020/02/14 11:42 CST    0.72   0.91   14   32   18  50.7  61.5 1029.7 -9.9 -9.999 -99.9 -99.99 -9.99
2020/02/14 11:48 CST    0.72   0.83   13   33   17  50.7  61.5 1029.8 -9.9 -9.999 -99.9 -99.99 -9.99
2020/02/14 11:54 CST    0.72   0.87   13   38   17  50.7  61.5 1029.7 -9.9 -9.999 -99.9 -99.99 -9.99
2020/02/14 12:00 CST    0.71   1.07   14   47   16  50.9  61.5 1029.7 -9.9 -9.999 -99.9 -99.99 -9.99
2020/02/14 12:06 CST    0.71   0.98   12   45   16  51.3  61.5 1029.6 -9.9 -9.999 -99.9 -99.99 -9.99
2020/02/14 12:12 CST    0.71   0.93   14   36   17  50.7  61.5 1029.5 -9.9 -9.999 -99.9 -99.99 -9.99
2020/02/14 12:18 CST    0.70   0.92   12   39   15  51.6  61.5 1029.4 -9.9 -9.999 -99.9 -99.99 -9.99
2020/02/14 12:24 CST    0.70   0.87   11   43   17  51.3  61.5 1029.5 -9.9 -9.999 -99.9 -99.99 -9.99
2020/02/14 12:30 CST    0.70   0.88   10   40   14  51.3  61.5 1029.4 -9.9 -9.999 -99.9 -99.99 -9.99
2020/02/14 12:36 CST    0.70   0.84   14   32   17  51.3  61.5 1029.3 -9.9 -9.999 -99.9 -99.99 -9.99
2020/02/14 12:42 CST    0.70   0.94   10   42   16  51.3  61.5 1029.4 -9.9 -9.999 -99.9 -99.99 -9.99
2020/02/14 12:48 CST    0.70   0.88   11   38   16  51.3  61.5 1029.4 -9.9 -9.999 -99.9 -99.99 -9.99
2020/02/14 12:54 CST    0.69   0.89   12   46   15  51.4  61.5 1029.3 -9.9 -9.999 -99.9 -99.99 -9.99
2020/02/14 13:00 CST    0.69   0.87   11   38   17  51.6  61.5 1029.1 -9.9 -9.999 -99.9 -99.99 -9.99
2020/02/14 13:06 CST    0.69   0.87   10   45   14  51.4  61.5 1029.1 -9.9 -9.999 -99.9 -99.99 -9.99
2020/02/14 13:12 CST    0.69   0.88   12   43   15  51.6  61.5 1028.9 -9.9 -9.999 -99.9 -99.99 -9.99
2020/02/14 13:18 CST    0.69   0.91   10   44   14  52.2  61.5 1028.8 -9.9 -9.999 -99.9 -99.99 -9.99
2020/02/14 13:24 CST    0.69   0.91   11   42   14  52.0  61.5 1028.7 -9.9 -9.999 -99.9 -99.99 -9.99
2020/02/14 13:30 CST    0.69   0.87   11   35   15  52.2  61.7 1028.6 -9.9 -9.999 -99.9 -99.99 -9.99
2020/02/14 13:36 CST    0.69   0.87    9   44   14  52.0  61.7 1028.6 -9.9 -9.999 -99.9 -99.99 -9.99
2020/02/14 13:42 CST    0.69   0.89    9   54   13  52.2  61.7 1028.6 -9.9 -9.999 -99.9 -99.99 -9.99
2020/02/14 13:48 CST    0.69   0.89    9   47   13  52.5  61.7 1028.5 -9.9 -9.999 -99.9 -99.99 -9.99
2020/02/14 13:54 CST    0.69   0.90   11   46   13  52.3  61.7 1028.3 -9.9 -9.999 -99.9 -99.99 -9.99
2020/02/14 14:00 CST    0.69   0.90   12   52   14  52.9  61.7 1028.3 -9.9 -9.999 -99.9 -99.99 -9.99
2020/02/14 14:06 CST    0.70   0.91    9   42   13  52.9  61.7 1028.2 -9.9 -9.999 -99.9 -99.99 -9.99
2020/02/14 14:12 CST    0.70   0.90   10   41   13  52.9  61.7 1028.1 -9.9 -9.999 -99.9 -99.99 -9.99
2020/02/14 14:18 CST    0.70   0.90   10   46   12  53.2  61.7 1028.1 -9.9 -9.999 -99.9 -99.99 -9.99
2020/02/14 14:24 CST    0.70   0.97    9   50   12  53.1  61.7 1028.0 -9.9 -9.999 -99.9 -99.99 -9.99
2020/02/14 14:30 CST    0.71   1.04    9   46   12  53.8  61.7 1027.9 -9.9 -9.999 -99.9 -99.99 -9.99
2020/02/14 14:36 CST    0.71   0.95    9   53   12  53.2  61.7 1027.8 -9.9 -9.999 -99.9 -99.99 -9.99
2020/02/14 14:42 CST    0.71   0.99   10   44   13  53.4  61.7 1027.7 -9.9 -9.999 -99.9 -99.99 -9.99
2020/02/14 14:48 CST    0.72   0.96    9   52   12  53.8  61.7 1027.6 -9.9 -9.999 -99.9 -99.99 -9.99
2020/02/14 14:54 CST    0.72   0.84    9   57   13  53.8  61.7 1027.6 -9.9 -9.999 -99.9 -99.99 -9.99
2020/02/14 15:00 CST    0.73   0.83    8   57   11  53.8  61.7 1027.6 -9.9 -9.999 -99.9 -99.99 -9.99
2020/02/14 15:06 CST    0.73   1.03   10   58   12  54.0  61.7 1027.6 -9.9 -9.999 -99.9 -99.99 -9.99
2020/02/14 15:12 CST    0.74   0.94    8   58   12  54.0  61.7 1027.5 -9.9 -9.999 -99.9 -99.99 -9.99
2020/02/14 15:18 CST    0.74   0.95   11   53   14  53.8  61.7 1027.6 -9.9 -9.999 -99.9 -99.99 -9.99
2020/02/14 15:24 CST    0.75   0.91    8   62   12  54.1  61.7 1027.5 -9.9 -9.999 -99.9 -99.99 -9.99
2020/02/14 15:30 CST    0.76   1.02    9   63   12  54.0  61.7 1027.4 -9.9 -9.999 -99.9 -99.99 -9.99
2020/02/14 15:36 CST    0.76   0.92   11   62   13  53.8  61.7 1027.5 -9.9 -9.999 -99.9 -99.99 -9.99
2020/02/14 15:42 CST    0.77   1.09   11   61   13  53.8  61.7 1027.4 -9.9 -9.999 -99.9 -99.99 -9.99
2020/02/14 15:48 CST    0.77   0.97   11   62   13  53.8  61.7 1027.3 -9.9 -9.999 -99.9 -99.99 -9.99
2020/02/14 15:54 CST    0.78   0.97   11   58   13  53.6  61.7 1027.4 -9.9 -9.999 -99.9 -99.99 -9.99
2020/02/14 16:00 CST    0.78   0.96   10   62   13  54.0  61.7 1027.3 -9.9 -9.999 -99.9 -99.99 -9.99
2020/02/14 16:06 CST    0.79   0.98   11   56   13  53.8  61.7 1027.2 -9.9 -9.999 -99.9 -99.99 -9.99
2020/02/14 16:12 CST    0.79   1.02   10   57   14  53.8  61.7 1027.3 -9.9 -9.999 -99.9 -99.99 -9.99
2020/02/14 16:18 CST    0.80   1.10   10   57   12  53.6  61.7 1027.3 -9.9 -9.999 -99.9 -99.99 -9.99
2020/02/14 16:24 CST    0.80   1.10    9   75   12  54.1  61.7 1027.3 -9.9 -9.999 -99.9 -99.99 -9.99
2020/02/14 16:30 CST    0.81   1.07   10   59   12  53.6  61.7 1027.3 -9.9 -9.999 -99.9 -99.99 -9.99
2020/02/14 16:36 CST    0.81   1.06   10   62   13  53.8  61.7 1027.3 -9.9 -9.999 -99.9 -99.99 -9.99
2020/02/14 16:42 CST    0.82   1.02    9   57   13  54.0  61.7 1027.2 -9.9 -9.999 -99.9 -99.99 -9.99
2020/02/14 16:48 CST    0.82   1.01   10   64   12  54.0  61.7 1027.2 -9.9 -9.999 -99.9 -99.99 -9.99
2020/02/14 16:54 CST    0.83   0.97   11   54   13  53.8  61.7 1027.2 -9.9 -9.999 -99.9 -99.99 -9.99
2020/02/14 17:00 CST    0.83   0.95   10   61   13  54.0  61.7 1027.2 -9.9 -9.999 -99.9 -99.99 -9.99
2020/02/14 17:06 CST    0.83   0.97   11   59   12  54.0  61.7 1027.1 -9.9 -9.999 -99.9 -99.99 -9.99
2020/02/14 17:12 CST    0.84   0.99   12   58   14  54.0  61.7 1027.2 -9.9 -9.999 -99.9 -99.99 -9.99
2020/02/14 17:18 CST    0.84   1.01    9   68   12  54.3  61.7 1027.2 -9.9 -9.999 -99.9 -99.99 -9.99
2020/02/14 17:24 CST    0.84   1.02    9   72   13  54.3  61.7 1027.2 -9.9 -9.999 -99.9 -99.99 -9.99
2020/02/14 17:30 CST    0.85   1.02    9   70   12  54.3  61.7 1027.3 -9.9 -9.999 -99.9 -99.99 -9.99
2020/02/14 17:36 CST    0.85   0.99    8   69   12  54.7  61.7 1027.3 -9.9 -9.999 -99.9 -99.99 -9.99
2020/02/14 17:42 CST    0.85   0.99    9   75   11  54.7  61.7 1027.3 -9.9 -9.999 -99.9 -99.99 -9.99
2020/02/14 17:48 CST    0.85   1.01   11   65   12  54.7  61.7 1027.3 -9.9 -9.999 -99.9 -99.99 -9.99
2020/02/14 17:54 CST    0.85   1.01    9   71   13  54.7  61.7 1027.2 -9.9 -9.999 -99.9 -99.99 -9.99
2020/02/14 18:00 CST    0.85   1.00    9   79   13  54.7  61.7 1027.1 -9.9 -9.999 -99.9 -99.99 -9.99
2020/02/14 18:06 CST    0.85   1.00    8   79   11  54.9  61.7 1027.2 -9.9 -9.999 -99.9 -99.99 -9.99
2020/02/14 18:12 CST    0.85   0.98    9   71   11  54.9  61.7 1027.2 -9.9 -9.999 -99.9 -99.99 -9.99
2020/02/14 18:18 CST    0.85   0.99    9   68   11  54.7  61.7 1027.1 -9.9 -9.999 -99.9 -99.99 -9.99
2020/02/14 18:24 CST    0.85   1.00    9   76   11  54.7  61.7 1027.2 -9.9 -9.999 -99.9 -99.99 -9.99
2020/02/14 18:30 CST    0.85   1.02    7   71    9  55.0  61.7 1027.1 -9.9 -9.999 -99.9 -99.99 -9.99
2020/02/14 18:36 CST    0.85   1.01    8   72   10  54.9  61.7 1027.1 -9.9 -9.999 -99.9 -99.99 -9.99
2020/02/14 18:42 CST    0.84   1.01    7   84   10  54.9  61.7 1027.0 -9.9 -9.999 -99.9 -99.99 -9.99
2020/02/14 18:48 CST    0.84   0.98    9   77   11  54.9  61.7 1027.1 -9.9 -9.999 -99.9 -99.99 -9.99
2020/02/14 18:54 CST    0.84   0.96    6   74   10  55.0  61.5 1027.1 -9.9 -9.999 -99.9 -99.99 -9.99
2020/02/14 19:00 CST    0.83   0.94    7   76   11  55.0  61.5 1027.1 -9.9 -9.999 -99.9 -99.99 -9.99
2020/02/14 19:06 CST    0.83   0.95    7   80    9  55.0  61.5 1027.1 -9.9 -9.999 -99.9 -99.99 -9.99
2020/02/14 19:12 CST    0.82   0.96    7   81    9  55.2  61.5 1027.0 -9.9 -9.999 -99.9 -99.99 -9.99
2020/02/14 19:18 CST    0.81   0.98    8   69   11  55.4  61.5 1027.0 -9.9 -9.999 -99.9 -99.99 -9.99
2020/02/14 19:24 CST    0.81   0.97    9   67   11  55.6  61.5 1027.1 -9.9 -9.999 -99.9 -99.99 -9.99
2020/02/14 19:30 CST    0.80   0.96    7   73   11  55.6  61.5 1027.2 -9.9 -9.999 -99.9 -99.99 -9.99
2020/02/14 19:36 CST    0.79   0.94    9   69   11  55.8  61.5 1027.3 -9.9 -9.999 -99.9 -99.99 -9.99
2020/02/14 19:42 CST    0.78   0.92    8   73   10  55.8  61.5 1027.4 -9.9 -9.999 -99.9 -99.99 -9.99
2020/02/14 19:48 CST    0.77   0.91    9   66   11  55.9  61.5 1027.5 -9.9 -9.999 -99.9 -99.99 -9.99
2020/02/14 19:54 CST    0.76   0.93    7   73   11  55.8  61.5 1027.5 -9.9 -9.999 -99.9 -99.99 -9.99
2020/02/14 20:00 CST    0.75   0.95    9   57   11  55.9  61.5 1027.7 -9.9 -9.999 -99.9 -99.99 -9.99
2020/02/14 20:06 CST    0.74   0.94    9   69   11  55.9  61.5 1027.7 -9.9 -9.999 -99.9 -99.99 -9.99
2020/02/14 20:12 CST    0.73   0.93    7   76   10  55.9  61.5 1027.7 -9.9 -9.999 -99.9 -99.99 -9.99
2020/02/14 20:18 CST    0.72   0.93   10   68   10  55.8  61.5 1027.8 -9.9 -9.999 -99.9 -99.99 -9.99
2020/02/14 20:24 CST    0.71   0.92    9   71   11  55.8  61.5 1027.9 -9.9 -9.999 -99.9 -99.99 -9.99
2020/02/14 20:30 CST    0.70   0.92    9   74   11  55.9  61.5 1027.8 -9.9 -9.999 -99.9 -99.99 -9.99
2020/02/14 20:36 CST    0.69   0.91    7   77   11  55.9  61.5 1027.8 -9.9 -9.999 -99.9 -99.99 -9.99
2020/02/14 20:42 CST    0.68   0.91    7   73   11  55.9  61.5 1027.9 -9.9 -9.999 -99.9 -99.99 -9.99
2020/02/14 20:48 CST    0.67   0.90    7   77   11  55.9  61.5 1028.0 -9.9 -9.999 -99.9 -99.99 -9.99
2020/02/14 20:54 CST    0.66   0.87    8   73   11  56.1  61.5 1028.0 -9.9 -9.999 -99.9 -99.99 -9.99
2020/02/14 21:00 CST    0.64   0.85    8   73   11  55.9  61.5 1028.0 -9.9 -9.999 -99.9 -99.99 -9.99
2020/02/14 21:06 CST    0.63   0.85    7   77    9  56.1  61.5 1028.0 -9.9 -9.999 -99.9 -99.99 -9.99
2020/02/14 21:12 CST    0.62   0.83    7   79   10  56.1  61.5 1028.0 -9.9 -9.999 -99.9 -99.99 -9.99
2020/02/14 21:18 CST    0.61   0.81    6   72   10  56.1  61.3 1027.9 -9.9 -9.999 -99.9 -99.99 -9.99
2020/02/14 21:24 CST    0.60   0.81    7   73    9  56.1  61.3 1027.9 -9.9 -9.999 -99.9 -99.99 -9.99
2020/02/14 21:30 CST    0.58   0.80    8   72    9  56.3  61.3 1027.9 -9.9 -9.999 -99.9 -99.99 -9.99
2020/02/14 21:36 CST    0.57   0.79    8   74   11  56.1  61.3 1027.9 -9.9 -9.999 -99.9 -99.99 -9.99
2020/02/14 21:42 CST    0.56   0.77    8   77    9  56.1  61.3 1027.8 -9.9 -9.999 -99.9 -99.99 -9.99
2020/02/14 21:48 CST    0.54   0.76   10   57   11  56.1  61.3 1027.8 -9.9 -9.999 -99.9 -99.99 -9.99
2020/02/14 21:54 CST    0.53   0.73    8   63   10  56.3  61.3 1027.8 -9.9 -9.999 -99.9 -99.99 -9.99
2020/02/14 22:00 CST    0.52   0.72    6   71   10  56.3  61.3 1027.7 -9.9 -9.999 -99.9 -99.99 -9.99
2020/02/14 22:06 CST    0.50   0.71    9   70   11  56.3  61.3 1027.6 -9.9 -9.999 -99.9 -99.99 -9.99
2020/02/14 22:12 CST    0.49   0.69    8   71   10  56.5  61.3 1027.5 -9.9 -9.999 -99.9 -99.99 -9.99
2020/02/14 22:18 CST    0.47   0.66   10   72   12  56.5  61.3 1027.4 -9.9 -9.999 -99.9 -99.99 -9.99
2020/02/14 22:24 CST    0.46   0.64    7   70   11  56.7  61.3 1027.4 -9.9 -9.999 -99.9 -99.99 -9.99
2020/02/14 22:30 CST    0.44   0.62    8   71   12  56.7  61.3 1027.3 -9.9 -9.999 -99.9 -99.99 -9.99
2020/02/14 22:36 CST    0.43   0.62    8   74   11  56.7  61.3 1027.4 -9.9 -9.999 -99.9 -99.99 -9.99
2020/02/14 22:42 CST    0.41   0.61    7   71    9  56.7  61.3 1027.3 -9.9 -9.999 -99.9 -99.99 -9.99
2020/02/14 22:48 CST    0.40   0.61    9   75   11  56.8  61.3 1027.1 -9.9 -9.999 -99.9 -99.99 -9.99
2020/02/14 22:54 CST    0.38   0.61   10   65   12  57.0  61.3 1027.0 -9.9 -9.999 -99.9 -99.99 -9.99
2020/02/14 23:00 CST    0.37   0.61    9   73   12  57.0  61.3 1027.0 -9.9 -9.999 -99.9 -99.99 -9.99
2020/02/14 23:06 CST    0.35   0.59    9   74   11  57.2  61.3 1027.1 -9.9 -9.999 -99.9 -99.99 -9.99
2020/02/14 23:12 CST    0.34   0.56    9   77   11  57.0  61.3 1026.9 -9.9 -9.999 -99.9 -99.99 -9.99
2020/02/14 23:18 CST    0.33   0.55    7   81   10  57.0  61.3 1026.9 -9.9 -9.999 -99.9 -99.99 -9.99
2020/02/14 23:24 CST    0.31   0.52    9   74   11  57.2  61.3 1027.0 -9.9 -9.999 -99.9 -99.99 -9.99
2020/02/14 23:30 CST    0.30   0.50    8   78   11  57.2  61.3 1027.0 -9.9 -9.999 -99.9 -99.99 -9.99
2020/02/14 23:36 CST    0.29   0.50    7   66    9  57.6  61.3 1027.0 -9.9 -9.999 -99.9 -99.99 -9.99
2020/02/14 23:42 CST    0.28   0.52    8   70    9  57.4  61.3 1026.9 -9.9 -9.999 -99.9 -99.99 -9.99
2020/02/14 23:48 CST    0.27   0.50    8   72   10  57.4  61.3 1026.8 -9.9 -9.999 -99.9 -99.99 -9.99
2020/02/14 23:54 CST    0.26   0.49    7   69   10  57.6  61.2 1026.7 -9.9 -9.999 -99.9 -99.99 -9.99
2020/02/15 00:00 CST    0.25   0.48    7   74   11  57.6  61.2 1026.6 -9.9 -9.999 -99.9 -99.99 -9.99
2020/02/15 00:06 CST    0.24   0.47    7   71    9  57.6  61.2 1026.6 -9.9 -9.999 -99.9 -99.99 -9.99
2020/02/15 00:12 CST    0.23   0.47    8   71   11  57.6  61.2 1026.6 -9.9 -9.999 -99.9 -99.99 -9.99
2020/02/15 00:18 CST    0.22   0.47    8   65    9  57.7  61.2 1026.6 -9.9 -9.999 -99.9 -99.99 -9.99
2020/02/15 00:24 CST    0.21   0.46    7   76    9  57.7  61.2 1026.5 -9.9 -9.999 -99.9 -99.99 -9.99
2020/02/15 00:30 CST    0.21   0.47    9   71   10  57.7  61.2 1026.4 -9.9 -9.999 -99.9 -99.99 -9.99
2020/02/15 00:36 CST    0.20   0.46    8   68   10  57.9  61.2 1026.4 -9.9 -9.999 -99.9 -99.99 -9.99
2020/02/15 00:42 CST    0.19   0.42    9   57   11  57.9  61.2 1026.4 -9.9 -9.999 -99.9 -99.99 -9.99
2020/02/15 00:48 CST    0.19   0.41    9   61    9  57.9  61.2 1026.4 -9.9 -9.999 -99.9 -99.99 -9.99
2020/02/15 00:54 CST    0.18   0.43    7   70   10  57.7  61.2 1026.3 -9.9 -9.999 -99.9 -99.99 -9.99
2020/02/15 01:00 CST    0.18   0.44    7   69   10  57.9  61.2 1026.1 -9.9 -9.999 -99.9 -99.99 -9.99
2020/02/15 01:06 CST    0.17   0.45    8   70    9  57.9  61.2 1026.0 -9.9 -9.999 -99.9 -99.99 -9.99
2020/02/15 01:12 CST    0.17   0.47    8   72   11  57.9  61.2 1025.8 -9.9 -9.999 -99.9 -99.99 -9.99
2020/02/15 01:18 CST    0.17   0.45    9   76   12  57.9  61.2 1025.7 -9.9 -9.999 -99.9 -99.99 -9.99
2020/02/15 01:24 CST    0.16   0.43    9   76   11  57.9  61.2 1025.6 -9.9 -9.999 -99.9 -99.99 -9.99
2020/02/15 01:30 CST    0.16   0.42    8   80   10  57.9  61.2 1025.5 -9.9 -9.999 -99.9 -99.99 -9.99
2020/02/15 01:36 CST    0.16   0.42    7   77   10  57.9  61.2 1025.4 -9.9 -9.999 -99.9 -99.99 -9.99
2020/02/15 01:42 CST    0.16   0.40    8   72   10  57.9  61.2 1025.5 -9.9 -9.999 -99.9 -99.99 -9.99
2020/02/15 01:48 CST    0.16   0.38    9   74   11  58.1  61.2 1025.4 -9.9 -9.999 -99.9 -99.99 -9.99
2020/02/15 01:54 CST    0.16   0.36    8   76   10  58.1  61.2 1025.3 -9.9 -9.999 -99.9 -99.99 -9.99
2020/02/15 02:00 CST    0.16   0.36    8   77   11  58.1  61.2 1025.2 -9.9 -9.999 -99.9 -99.99 -9.99
2020/02/15 02:06 CST    0.16   0.37   10   72   12  58.3  61.2 1025.1 -9.9 -9.999 -99.9 -99.99 -9.99
2020/02/15 02:12 CST    0.16   0.37    8   75   11  58.1  61.2 1025.1 -9.9 -9.999 -99.9 -99.99 -9.99
2020/02/15 02:18 CST    0.16   0.39    7   73   11  58.1  61.2 1025.0 -9.9 -9.999 -99.9 -99.99 -9.99
2020/02/15 02:24 CST    0.16   0.41    8   74   11  58.1  61.2 1024.8 -9.9 -9.999 -99.9 -99.99 -9.99
2020/02/15 02:30 CST    0.17   0.37    8   69   10  58.1  61.2 1024.7 -9.9 -9.999 -99.9 -99.99 -9.99
2020/02/15 02:36 CST    0.17   0.36    9   72   11  58.3  61.2 1024.7 -9.9 -9.999 -99.9 -99.99 -9.99
2020/02/15 02:42 CST    0.18   0.33    8   63   11  58.3  61.2 1024.7 -9.9 -9.999 -99.9 -99.99 -9.99
2020/02/15 02:48 CST    0.18   0.31    9   59   11  58.3  61.2 1024.6 -9.9 -9.999 -99.9 -99.99 -9.99
2020/02/15 02:54 CST    0.19   0.30    8   61   10  58.1  61.2 1024.6 -9.9 -9.999 -99.9 -99.99 -9.99
2020/02/15 03:00 CST    0.19   0.34    9   58   10  58.1  61.0 1024.7 -9.9 -9.999 -99.9 -99.99 -9.99
2020/02/15 03:06 CST    0.20   0.37    8   57   10  58.3  61.0 1024.6 -9.9 -9.999 -99.9 -99.99 -9.99
2020/02/15 03:12 CST    0.21   0.37    8   54   10  58.3  61.0 1024.6 -9.9 -9.999 -99.9 -99.99 -9.99
2020/02/15 03:18 CST    0.22   0.40    7   52    9  58.1  61.0 1024.5 -9.9 -9.999 -99.9 -99.99 -9.99
2020/02/15 03:24 CST    0.22   0.40    7   46    8  57.9  61.0 1024.5 -9.9 -9.999 -99.9 -99.99 -9.99
2020/02/15 03:30 CST    0.23   0.41    9   54   10  58.3  61.0 1024.5 -9.9 -9.999 -99.9 -99.99 -9.99
2020/02/15 03:36 CST    0.24   0.40    6   52    8  57.9  61.0 1024.4 -9.9 -9.999 -99.9 -99.99 -9.99
2020/02/15 03:42 CST    0.25   0.40    7   54    8  58.1  61.0 1024.4 -9.9 -9.999 -99.9 -99.99 -9.99
2020/02/15 03:48 CST    0.27   0.40    6   52    8  58.3  61.0 1024.4 -9.9 -9.999 -99.9 -99.99 -9.99
2020/02/15 03:54 CST    0.28   0.43    6   47    8  58.1  61.0 1024.3 -9.9 -9.999 -99.9 -99.99 -9.99
2020/02/15 04:00 CST    0.29   0.46    6   50    8  58.1  61.0 1024.3 -9.9 -9.999 -99.9 -99.99 -9.99
2020/02/15 04:06 CST    0.30   0.47    6   46    7  58.1  61.0 1024.3 -9.9 -9.999 -99.9 -99.99 -9.99
2020/02/15 04:12 CST    0.31   0.51    7   52    9  58.3  61.0 1024.1 -9.9 -9.999 -99.9 -99.99 -9.99
2020/02/15 04:18 CST    0.33   0.53    7   55    8  58.5  60.8 1023.9 -9.9 -9.999 -99.9 -99.99 -9.99
2020/02/15 04:24 CST    0.34   0.55    7   53    8  58.6  60.8 1023.9 -9.9 -9.999 -99.9 -99.99 -9.99
2020/02/15 04:30 CST    0.35   0.58    7   48    8  58.5  60.8 1023.8 -9.9 -9.999 -99.9 -99.99 -9.99
2020/02/15 04:36 CST    0.37   0.61    7   50    8  58.5  60.8 1023.7 -9.9 -9.999 -99.9 -99.99 -9.99
2020/02/15 04:42 CST    0.38   0.65    8   60    9  58.8  60.8 1023.6 -9.9 -9.999 -99.9 -99.99 -9.99
2020/02/15 04:48 CST    0.39   0.68    8   56    9  58.8  60.8 1023.6 -9.9 -9.999 -99.9 -99.99 -9.99
2020/02/15 04:54 CST    0.41   0.70    8   53   10  58.6  60.6 1023.6 -9.9 -9.999 -99.9 -99.99 -9.99
2020/02/15 05:00 CST    0.42   0.73    7   53    9  58.6  60.6 1023.6 -9.9 -9.999 -99.9 -99.99 -9.99
2020/02/15 05:06 CST    0.44   0.75    7   48    8  58.5  60.6 1023.6 -9.9 -9.999 -99.9 -99.99 -9.99
2020/02/15 05:12 CST    0.45   0.76    7   41    8  58.3  60.6 1023.7 -9.9 -9.999 -99.9 -99.99 -9.99
2020/02/15 05:18 CST    0.47   0.76    7   41    8  58.3  60.6 1023.7 -9.9 -9.999 -99.9 -99.99 -9.99
2020/02/15 05:24 CST    0.48   0.76    6   40    7  58.1  60.6 1023.6 -9.9 -9.999 -99.9 -99.99 -9.99
2020/02/15 05:30 CST    0.50   0.76    4    4    7  55.9  60.6 1023.5 -9.9 -9.999 -99.9 -99.99 -9.99
2020/02/15 05:36 CST    0.51   0.77    4   14    6  55.4  60.6 1023.4 -9.9 -9.999 -99.9 -99.99 -9.99
2020/02/15 05:42 CST    0.53   0.79    4  359    5  54.7  60.6 1023.4 -9.9 -9.999 -99.9 -99.99 -9.99
2020/02/15 05:48 CST    0.55   0.82    5  357    6  54.7  60.4 1023.5 -9.9 -9.999 -99.9 -99.99 -9.99
2020/02/15 05:54 CST    0.56   0.85    5  351    6  54.3  60.4 1023.6 -9.9 -9.999 -99.9 -99.99 -9.99
2020/02/15 06:00 CST    0.58   0.86    6  355    8  54.3  60.4 1023.6 -9.9 -9.999 -99.9 -99.99 -9.99
2020/02/15 06:06 CST    0.59   0.88    7    4    8  54.3  60.4 1023.6 -9.9 -9.999 -99.9 -99.99 -9.99
2020/02/15 06:12 CST    0.61   0.90    6    9    8  54.3  60.4 1023.6 -9.9 -9.999 -99.9 -99.99 -9.99
2020/02/15 06:18 CST    0.62   0.91    7   16    9  54.3  60.4 1023.5 -9.9 -9.999 -99.9 -99.99 -9.99
2020/02/15 06:24 CST    0.64   0.91    7    9    8  54.1  60.4 1023.5 -9.9 -9.999 -99.9 -99.99 -9.99
2020/02/15 06:30 CST    0.66   0.93    7   11    8  54.1  60.4 1023.6 -9.9 -9.999 -99.9 -99.99 -9.99
2020/02/15 06:36 CST    0.67   0.93    7    7    8  54.0  60.4 1023.6 -9.9 -9.999 -99.9 -99.99 -9.99
2020/02/15 06:42 CST    0.69   0.94    7   17    8  54.0  60.3 1023.5 -9.9 -9.999 -99.9 -99.99 -9.99
2020/02/15 06:48 CST    0.70   0.95    6   14    8  53.8  60.3 1023.6 -9.9 -9.999 -99.9 -99.99 -9.99
2020/02/15 06:54 CST    0.71   0.97    6   13    8  53.6  60.3 1023.6 -9.9 -9.999 -99.9 -99.99 -9.99
2020/02/15 07:00 CST    0.73   0.98    7   15    8  53.6  60.3 1023.6 -9.9 -9.999 -99.9 -99.99 -9.99
2020/02/15 07:06 CST    0.74   1.00    7   18    9  53.6  60.3 1023.7 -9.9 -9.999 -99.9 -99.99 -9.99
2020/02/15 07:12 CST    0.75   1.01    7   16    8  53.6  60.3 1023.7 -9.9 -9.999 -99.9 -99.99 -9.99
2020/02/15 07:18 CST    0.77   1.03    7   14    9  53.4  60.3 1023.8 -9.9 -9.999 -99.9 -99.99 -9.99
2020/02/15 07:24 CST    0.78   1.03    7   14    9  53.6  60.3 1024.0 -9.9 -9.999 -99.9 -99.99 -9.99
2020/02/15 07:30 CST    0.79   1.04    7   11    8  53.8  60.1 1024.0 -9.9 -9.999 -99.9 -99.99 -9.99
2020/02/15 07:36 CST    0.80   1.04    7   17    8  54.0  60.1 1024.1 -9.9 -9.999 -99.9 -99.99 -9.99
2020/02/15 07:42 CST    0.81   1.04    7   25    8  54.1  60.1 1024.1 -9.9 -9.999 -99.9 -99.99 -9.99
2020/02/15 07:48 CST    0.82   1.04    8   33   10  54.7  60.1 1024.1 -9.9 -9.999 -99.9 -99.99 -9.99
2020/02/15 07:54 CST    0.83   1.04    9   37   11  55.0  60.1 1024.0 -9.9 -9.999 -99.9 -99.99 -9.99
2020/02/15 08:00 CST    0.84   1.07    9   38   11  55.0  60.1 1023.9 -9.9 -9.999 -99.9 -99.99 -9.99
2020/02/15 08:06 CST    0.85   1.08    9   39   11  55.6  60.1 1024.0 -9.9 -9.999 -99.9 -99.99 -9.99
2020/02/15 08:12 CST    0.85   1.10   10   43   11  56.3  60.1 1024.0 -9.9 -9.999 -99.9 -99.99 -9.99
2020/02/15 08:18 CST    0.86   1.12    8   45   11  57.0  60.1 1024.1 -9.9 -9.999 -99.9 -99.99 -9.99
2020/02/15 08:24 CST    0.87   1.12    8   45   10  57.6  60.1 1024.1 -9.9 -9.999 -99.9 -99.99 -9.99
2020/02/15 08:30 CST    0.88   1.12    9   44   10  58.1  60.1 1024.1 -9.9 -9.999 -99.9 -99.99 -9.99
2020/02/15 08:36 CST    0.88   1.13    8   50   11  58.5  60.1 1024.2 -9.9 -9.999 -99.9 -99.99 -9.99
2020/02/15 08:42 CST    0.89   1.13    9   48   11  58.6  60.1 1024.2 -9.9 -9.999 -99.9 -99.99 -9.99
2020/02/15 08:48 CST    0.89   1.13   10   51   11  58.8  60.1 1024.2 -9.9 -9.999 -99.9 -99.99 -9.99
2020/02/15 08:54 CST    0.90   1.15    9   52   11  58.8  60.1 1024.3 -9.9 -9.999 -99.9 -99.99 -9.99
2020/02/15 09:00 CST    0.91   1.16    8   51   10  59.2  60.1 1024.3 -9.9 -9.999 -99.9 -99.99 -9.99
2020/02/15 09:06 CST    0.91   1.17    9   51   11  59.2  60.1 1024.3 -9.9 -9.999 -99.9 -99.99 -9.99
2020/02/15 09:12 CST    0.91   1.18   10   57   11  59.4  60.1 1024.3 -9.9 -9.999 -99.9 -99.99 -9.99
2020/02/15 09:18 CST    0.92   1.18   10   58   11  59.5  60.1 1024.4 -9.9 -9.999 -99.9 -99.99 -9.99
2020/02/15 09:24 CST    0.92   1.19   10   58   12  59.7  60.1 1024.3 -9.9 -9.999 -99.9 -99.99 -9.99
2020/02/15 09:30 CST    0.93   1.18   10   59   12  59.7  60.1 1024.3 -9.9 -9.999 -99.9 -99.99 -9.99
2020/02/15 09:36 CST    0.93   1.18   10   61   11  59.7  60.3 1024.3 -9.9 -9.999 -99.9 -99.99 -9.99
2020/02/15 09:42 CST    0.93   1.17   10   60   12  59.9  60.3 1024.3 -9.9 -9.999 -99.9 -99.99 -9.99
2020/02/15 09:48 CST    0.94   1.19    9   64   11  60.1  60.3 1024.4 -9.9 -9.999 -99.9 -99.99 -9.99
2020/02/15 09:54 CST    0.94   1.20   11   58   12  60.1  60.3 1024.4 -9.9 -9.999 -99.9 -99.99 -9.99
2020/02/15 10:00 CST    0.94   1.20   10   58   12  60.1  60.3 1024.3 -9.9 -9.999 -99.9 -99.99 -9.99
2020/02/15 10:06 CST    0.94   1.19   10   63   11  60.4  60.3 1024.3 -9.9 -9.999 -99.9 -99.99 -9.99
2020/02/15 10:12 CST    0.94   1.20   10   60   11  60.3  60.3 1024.2 -9.9 -9.999 -99.9 -99.99 -9.99
2020/02/15 10:18 CST    0.94   1.19   10   59   11  60.3  60.4 1024.2 -9.9 -9.999 -99.9 -99.99 -9.99
2020/02/15 10:24 CST    0.94   1.19   10   56   11  60.3  60.4 1024.1 -9.9 -9.999 -99.9 -99.99 -9.99
2020/02/15 10:30 CST    0.94   1.20   10   57   12  60.4  60.4 1024.1 -9.9 -9.999 -99.9 -99.99 -9.99
2020/02/15 10:36 CST    0.94   1.21   10   61   12  60.6  60.4 1024.2 -9.9 -9.999 -99.9 -99.99 -9.99
2020/02/15 10:42 CST    0.94   1.22   10   61   11  60.4  60.4 1024.2 -9.9 -9.999 -99.9 -99.99 -9.99
2020/02/15 10:48 CST    0.94   1.22   11   62   12  60.6  60.4 1024.1 -9.9 -9.999 -99.9 -99.99 -9.99
2020/02/15 10:54 CST    0.93   1.22   10   63   11  60.4  60.4 1024.1 -9.9 -9.999 -99.9 -99.99 -9.99
2020/02/15 11:00 CST    0.93   1.20   10   64   12  60.4  60.4 1024.1 -9.9 -9.999 -99.9 -99.99 -9.99
2020/02/15 11:06 CST    0.93   1.20   11   65   12  60.6  60.4 1024.0 -9.9 -9.999 -99.9 -99.99 -9.99
2020/02/15 11:12 CST    0.93   1.21   11   65   12  60.8  60.6 1023.9 -9.9 -9.999 -99.9 -99.99 -9.99
2020/02/15 11:18 CST    0.92   1.22   10   65   12  60.8  60.6 1023.9 -9.9 -9.999 -99.9 -99.99 -9.99
2020/02/15 11:24 CST    0.92   1.21   11   66   12  60.8  60.6 1023.8 -9.9 -9.999 -99.9 -99.99 -9.99
2020/02/15 11:30 CST    0.92   1.21   11   66   13  60.8  60.6 1023.6 -9.9 -9.999 -99.9 -99.99 -9.99
2020/02/15 11:36 CST    0.91   1.21   11   63   12  61.0  60.6 1023.6 -9.9 -9.999 -99.9 -99.99 -9.99
2020/02/15 11:42 CST    0.91   1.22   10   64   12  61.2  60.8 1023.5 -9.9 -9.999 -99.9 -99.99 -9.99
2020/02/15 11:48 CST    0.91   1.22   11   63   12  61.2  60.8 1023.3 -9.9 -9.999 -99.9 -99.99 -9.99
2020/02/15 11:54 CST    0.90   1.26   10   62   12  61.3  60.8 1023.2 -9.9 -9.999 -99.9 -99.99 -9.99
2020/02/15 12:00 CST    0.90   1.29   11   66   12  61.2  60.8 1023.1 -9.9 -9.999 -99.9 -99.99 -9.99
2020/02/15 12:06 CST    0.90   1.29   11   65   12  61.2  60.8 1023.0 -9.9 -9.999 -99.9 -99.99 -9.99
2020/02/15 12:12 CST    0.90   1.30   11   66   13  61.3  60.8 1022.9 -9.9 -9.999 -99.9 -99.99 -9.99
2020/02/15 12:18 CST    0.90   1.30   11   66   13  61.3  60.8 1022.8 -9.9 -9.999 -99.9 -99.99 -9.99
2020/02/15 12:24 CST    0.89   1.39   11   65   13  61.5  61.0 1022.6 -9.9 -9.999 -99.9 -99.99 -9.99
2020/02/15 12:30 CST    0.89   1.14   11   65   13  61.7  60.8 1022.5 -9.9 -9.999 -99.9 -99.99 -9.99
2020/02/15 12:36 CST    0.89   1.26   12   64   13  61.7  61.0 1022.4 -9.9 -9.999 -99.9 -99.99 -9.99
2020/02/15 12:42 CST    0.89   1.24   12   66   13  61.5  61.0 1022.3 -9.9 -9.999 -99.9 -99.99 -9.99
2020/02/15 12:48 CST    0.89   1.30   12   64   13  61.7  61.0 1022.1 -9.9 -9.999 -99.9 -99.99 -9.99
2020/02/15 12:54 CST    0.89   1.29   11   64   13  61.7  61.0 1022.0 -9.9 -9.999 -99.9 -99.99 -9.99
2020/02/15 13:00 CST    0.89   1.33   11   64   13  61.5  61.0 1022.0 -9.9 -9.999 -99.9 -99.99 -9.99
2020/02/15 13:06 CST    0.89   1.36   11   66   14  61.7  61.0 1021.8 -9.9 -9.999 -99.9 -99.99 -9.99
2020/02/15 13:12 CST    0.89   1.28   11   65   13  61.9  61.0 1021.7 -9.9 -9.999 -99.9 -99.99 -9.99
2020/02/15 13:18 CST    0.89   1.33   11   66   13  61.7  61.2 1021.7 -9.9 -9.999 -99.9 -99.99 -9.99
2020/02/15 13:24 CST    0.89   1.26   11   66   12  61.7  61.2 1021.5 -9.9 -9.999 -99.9 -99.99 -9.99
2020/02/15 13:30 CST    0.89   1.36   11   67   13  62.2  61.2 1021.5 -9.9 -9.999 -99.9 -99.99 -9.99
2020/02/15 13:36 CST    0.89   1.31   10   63   11  61.9  61.2 1021.4 -9.9 -9.999 -99.9 -99.99 -9.99
2020/02/15 13:42 CST    0.89   1.33   10   64   11  61.9  61.2 1021.4 -9.9 -9.999 -99.9 -99.99 -9.99
2020/02/15 13:48 CST    0.89   1.37   11   66   12  62.1  61.2 1021.2 -9.9 -9.999 -99.9 -99.99 -9.99
2020/02/15 13:54 CST    0.89   1.36   11   66   12  62.1  61.2 1021.1 -9.9 -9.999 -99.9 -99.99 -9.99
2020/02/15 14:00 CST    0.89   1.36   10   64   12  62.2  61.2 1021.1 -9.9 -9.999 -99.9 -99.99 -9.99
2020/02/15 14:06 CST    0.89   1.36   10   64   11  62.2  61.3 1021.2 -9.9 -9.999 -99.9 -99.99 -9.99
2020/02/15 14:12 CST    0.89   1.36    9   67   11  62.2  61.3 1021.2 -9.9 -9.999 -99.9 -99.99 -9.99
2020/02/15 14:18 CST    0.88   1.32    9   67   11  62.1  61.3 1021.2 -9.9 -9.999 -99.9 -99.99 -9.99
2020/02/15 14:24 CST    0.88   1.33   10   68   11  62.1  61.3 1021.0 -9.9 -9.999 -99.9 -99.99 -9.99
2020/02/15 14:30 CST    0.88   1.31   10   66   11  62.1  61.3 1020.8 -9.9 -9.999 -99.9 -99.99 -9.99
2020/02/15 14:36 CST    0.88   1.31    9   64   11  62.2  61.3 1020.7 -9.9 -9.999 -99.9 -99.99 -9.99
2020/02/15 14:42 CST    0.88   1.32   10   64   11  62.1  61.3 1020.6 -9.9 -9.999 -99.9 -99.99 -9.99
2020/02/15 14:48 CST    0.88   1.32   10   63   12  62.2  61.3 1020.5 -9.9 -9.999 -99.9 -99.99 -9.99
2020/02/15 14:54 CST    0.88   1.34   11   66   12  62.2  61.5 1020.4 -9.9 -9.999 -99.9 -99.99 -9.99
2020/02/15 15:00 CST    0.88   1.32   10   66   12  62.2  61.5 1020.4 -9.9 -9.999 -99.9 -99.99 -9.99
2020/02/15 15:06 CST    0.88   1.33    9   65   11  62.2  61.5 1020.3 -9.9 -9.999 -99.9 -99.99 -9.99
2020/02/15 15:12 CST    0.88   1.33   10   68   11  62.6  61.5 1020.3 -9.9 -9.999 -99.9 -99.99 -9.99
2020/02/15 15:18 CST    0.88   1.33    9   70   12  63.1  61.5 1020.1 -9.9 -9.999 -99.9 -99.99 -9.99
2020/02/15 15:24 CST    0.88   1.38    9   67   12  63.1  61.5 1020.1 -9.9 -9.999 -99.9 -99.99 -9.99
2020/02/15 15:30 CST    0.88   1.50   10   70   12  63.1  61.5 1020.0 -9.9 -9.999 -99.9 -99.99 -9.99
2020/02/15 15:36 CST    0.88   1.02   10   67   12  63.3  61.5 1020.0 -9.9 -9.999 -99.9 -99.99 -9.99
2020/02/15 15:42 CST    0.88   1.40    9   69   11  63.0  61.5 1019.9 -9.9 -9.999 -99.9 -99.99 -9.99
2020/02/15 15:48 CST    0.88   1.45   10   69   11  63.0  61.5 1019.8 -9.9 -9.999 -99.9 -99.99 -9.99
2020/02/15 15:54 CST    0.88   1.37   10   66   13  62.8  61.5 1019.7 -9.9 -9.999 -99.9 -99.99 -9.99
2020/02/15 16:00 CST    0.89   1.40    9   68   11  62.6  61.7 1019.6 -9.9 -9.999 -99.9 -99.99 -9.99
2020/02/15 16:06 CST    0.89   1.36   10   66   11  62.8  61.9 1019.4 -9.9 -9.999 -99.9 -99.99 -9.99
2020/02/15 16:12 CST    0.89   1.35    9   66   11  63.3  61.9 1019.2 -9.9 -9.999 -99.9 -99.99 -9.99
2020/02/15 16:18 CST    0.89   1.22   10   66   11  63.3  61.9 1019.2 -9.9 -9.999 -99.9 -99.99 -9.99
2020/02/15 16:24 CST    0.89   1.29    9   63   11  63.1  61.9 1019.2 -9.9 -9.999 -99.9 -99.99 -9.99
2020/02/15 16:30 CST    0.89   1.37    9   65   10  63.1  61.9 1019.2 -9.9 -9.999 -99.9 -99.99 -9.99
2020/02/15 16:36 CST    0.89   1.37    9   66   11  63.3  61.9 1019.1 -9.9 -9.999 -99.9 -99.99 -9.99
2020/02/15 16:42 CST    0.89   1.39    8   69   11  63.5  61.9 1019.0 -9.9 -9.999 -99.9 -99.99 -9.99
2020/02/15 16:48 CST    0.89   1.33    8   63   10  63.3  61.9 1019.1 -9.9 -9.999 -99.9 -99.99 -9.99
2020/02/15 16:54 CST    0.89   1.42    8   65    9  63.1  61.9 1019.1 -9.9 -9.999 -99.9 -99.99 -9.99
2020/02/15 17:00 CST    0.89   1.28    7   69    9  63.3  61.9 1018.9 -9.9 -9.999 -99.9 -99.99 -9.99
2020/02/15 17:06 CST    0.89   1.39    7   77   10  63.7  61.9 1018.6 -9.9 -9.999 -99.9 -99.99 -9.99
2020/02/15 17:12 CST    0.89   1.34    8   79   11  63.7  61.9 1018.6 -9.9 -9.999 -99.9 -99.99 -9.99
2020/02/15 17:18 CST    0.89   1.34    6   80    9  63.9  61.9 1018.6 -9.9 -9.999 -99.9 -99.99 -9.99
2020/02/15 17:24 CST    0.90   1.39    6   86    8  64.4  61.9 1018.8 -9.9 -9.999 -99.9 -99.99 -9.99
2020/02/15 17:30 CST    0.90   1.42    6   78    8  64.4  61.9 1018.8 -9.9 -9.999 -99.9 -99.99 -9.99
2020/02/15 17:36 CST    0.90   1.41    7   89    8  64.4  61.9 1018.6 -9.9 -9.999 -99.9 -99.99 -9.99
2020/02/15 17:42 CST    0.90   1.40    6   80    8  64.2  61.9 1018.6 -9.9 -9.999 -99.9 -99.99 -9.99
2020/02/15 17:48 CST    0.90   1.48    6   72    8  63.7  61.9 1018.6 -9.9 -9.999 -99.9 -99.99 -9.99
2020/02/15 17:54 CST    0.90   1.54    5   71    8  63.3  61.9 1018.6 -9.9 -9.999 -99.9 -99.99 -9.99
2020/02/15 18:00 CST    0.90   1.10    6   78    8  63.3  61.9 1018.4 -9.9 -9.999 -99.9 -99.99 -9.99
2020/02/15 18:06 CST    0.90   1.28    5   76    7  63.5  61.9 1018.5 -9.9 -9.999 -99.9 -99.99 -9.99
2020/02/15 18:12 CST    0.90   1.51    6   78    8  63.5  62.1 1018.4 -9.9 -9.999 -99.9 -99.99 -9.99
2020/02/15 18:18 CST    0.90   1.39    6   78    8  63.5  61.9 1018.2 -9.9 -9.999 -99.9 -99.99 -9.99
2020/02/15 18:24 CST    0.90   1.50    6   74    7  63.9  62.1 1018.2 -9.9 -9.999 -99.9 -99.99 -9.99
2020/02/15 18:30 CST    0.90   1.48    6   76    9  63.7  62.1 1018.2 -9.9 -9.999 -99.9 -99.99 -9.99
2020/02/15 18:36 CST    0.90   1.45    5   75    7  63.5  62.1 1018.4 -9.9 -9.999 -99.9 -99.99 -9.99
2020/02/15 18:42 CST    0.89   1.42    5   69    7  63.3  62.1 1018.6 -9.9 -9.999 -99.9 -99.99 -9.99
2020/02/15 18:48 CST    0.89   1.49    5   66    7  63.0  62.1 1018.7 -9.9 -9.999 -99.9 -99.99 -9.99
2020/02/15 18:54 CST    0.89   1.45    6   73    7  63.0  62.1 1018.5 -9.9 -9.999 -99.9 -99.99 -9.99
2020/02/15 19:00 CST    0.89   1.38    6   65    7  63.1  62.1 1018.7 -9.9 -9.999 -99.9 -99.99 -9.99
2020/02/15 19:06 CST    0.89   1.47    6   73    7  63.1  62.1 1018.7 -9.9 -9.999 -99.9 -99.99 -9.99
2020/02/15 19:12 CST    0.89   1.27    4   83    7  63.3  62.1 1018.7 -9.9 -9.999 -99.9 -99.99 -9.99
2020/02/15 19:18 CST    0.88   1.39    5   85    8  63.3  62.1 1018.7 -9.9 -9.999 -99.9 -99.99 -9.99
2020/02/15 19:24 CST    0.88   1.48    6   81    7  63.3  62.1 1018.6 -9.9 -9.999 -99.9 -99.99 -9.99
2020/02/15 19:30 CST    0.88   1.45    6   78    8  63.1  62.1 1018.4 -9.9 -9.999 -99.9 -99.99 -9.99
2020/02/15 19:36 CST    0.87   1.49    5   82    7  63.1  62.1 1018.3 -9.9 -9.999 -99.9 -99.99 -9.99
2020/02/15 19:42 CST    0.87   1.36    6   92    8  63.1  62.1 1018.2 -9.9 -9.999 -99.9 -99.99 -9.99
2020/02/15 19:48 CST    0.86   1.49    7   90    9  63.3  62.1 1018.3 -9.9 -9.999 -99.9 -99.99 -9.99
2020/02/15 19:54 CST    0.85   1.34    6   88    8  63.5  62.1 1018.3 -9.9 -9.999 -99.9 -99.99 -9.99
2020/02/15 20:00 CST    0.85   1.42    7   87    8  63.5  62.1 1018.3 -9.9 -9.999 -99.9 -99.99 -9.99
2020/02/15 20:06 CST    0.84   1.38    6   76    8  63.3  62.1 1018.4 -9.9 -9.999 -99.9 -99.99 -9.99
2020/02/15 20:12 CST    0.83   1.36    5   86    7  63.3  62.1 1018.6 -9.9 -9.999 -99.9 -99.99 -9.99
2020/02/15 20:18 CST    0.82   1.34    4   76    7  63.3  62.1 1018.8 -9.9 -9.999 -99.9 -99.99 -9.99
2020/02/15 20:24 CST    0.81   1.38    5   66    6  63.1  62.1 1019.0 -9.9 -9.999 -99.9 -99.99 -9.99
2020/02/15 20:30 CST    0.80   1.28    4   63    6  63.0  62.1 1019.1 -9.9 -9.999 -99.9 -99.99 -9.99
2020/02/15 20:36 CST    0.79   1.26    4   51    6  62.6  62.1 1019.2 -9.9 -9.999 -99.9 -99.99 -9.99
2020/02/15 20:42 CST    0.78   1.30    4   43    5  62.2  62.1 1019.3 -9.9 -9.999 -99.9 -99.99 -9.99
2020/02/15 20:48 CST    0.77   1.29    4   24    5  62.1  62.1 1019.4 -9.9 -9.999 -99.9 -99.99 -9.99
2020/02/15 20:54 CST    0.76   1.30    4   34    5  62.1  62.1 1019.5 -9.9 -9.999 -99.9 -99.99 -9.99
2020/02/15 21:00 CST    0.75   1.29    6   37    6  62.4  62.1 1019.6 -9.9 -9.999 -99.9 -99.99 -9.99
2020/02/15 21:06 CST    0.73   1.27    6   40    8  62.2  62.1 1019.6 -9.9 -9.999 -99.9 -99.99 -9.99
2020/02/15 21:12 CST    0.72   1.26    5   69    7  62.1  62.1 1019.4 -9.9 -9.999 -99.9 -99.99 -9.99
2020/02/15 21:18 CST    0.71   1.25    5   69    5  62.1  62.1 1019.4 -9.9 -9.999 -99.9 -99.99 -9.99
2020/02/15 21:24 CST    0.70   1.25    5   64    6  61.9  62.1 1019.3 -9.9 -9.999 -99.9 -99.99 -9.99
2020/02/15 21:30 CST    0.68   1.22    5   76    6  62.1  62.1 1019.1 -9.9 -9.999 -99.9 -99.99 -9.99
2020/02/15 21:36 CST    0.67   1.22    5   72    7  62.6  62.1 1019.3 -9.9 -9.999 -99.9 -99.99 -9.99
2020/02/15 21:42 CST    0.66   1.22    6   73    7  62.8  62.1 1019.3 -9.9 -9.999 -99.9 -99.99 -9.99
2020/02/15 21:48 CST    0.64   1.23    6   74    7  62.8  62.1 1019.0 -9.9 -9.999 -99.9 -99.99 -9.99
2020/02/15 21:54 CST    0.63   1.21    6   69    7  62.8  62.1 1019.0 -9.9 -9.999 -99.9 -99.99 -9.99
2020/02/15 22:00 CST    0.61   1.19    5   59    7  62.2  62.1 1019.0 -9.9 -9.999 -99.9 -99.99 -9.99
2020/02/15 22:06 CST    0.60   1.18    5   65    6  62.1  62.1 1018.9 -9.9 -9.999 -99.9 -99.99 -9.99
2020/02/15 22:12 CST    0.58   1.14    4   66    5  62.1  62.1 1018.8 -9.9 -9.999 -99.9 -99.99 -9.99
2020/02/15 22:18 CST    0.57   1.13    5   66    6  62.2  62.1 1018.8 -9.9 -9.999 -99.9 -99.99 -9.99
2020/02/15 22:24 CST    0.55   1.11    4   72    6  62.4  62.1 1018.6 -9.9 -9.999 -99.9 -99.99 -9.99
2020/02/15 22:30 CST    0.53   1.13    4   75    6  62.6  62.1 1018.5 -9.9 -9.999 -99.9 -99.99 -9.99
2020/02/15 22:36 CST    0.52   1.09    5   67    6  62.4  62.1 1018.5 -9.9 -9.999 -99.9 -99.99 -9.99
2020/02/15 22:42 CST    0.50   1.10    4   49    5  62.1  62.1 1018.6 -9.9 -9.999 -99.9 -99.99 -9.99
2020/02/15 22:48 CST    0.48   1.11    3   17    4  61.7  62.1 1018.8 -9.9 -9.999 -99.9 -99.99 -9.99
2020/02/15 22:54 CST    0.47   1.07    4    9    4  61.3  62.1 1018.8 -9.9 -9.999 -99.9 -99.99 -9.99
2020/02/15 23:00 CST    0.45   1.04    4    7    4  61.7  62.1 1018.9 -9.9 -9.999 -99.9 -99.99 -9.99
2020/02/15 23:06 CST    0.43   1.03    4   29    5  62.1  62.1 1018.8 -9.9 -9.999 -99.9 -99.99 -9.99
2020/02/15 23:12 CST    0.41   0.98    4   28    5  62.2  62.1 1018.8 -9.9 -9.999 -99.9 -99.99 -9.99
2020/02/15 23:18 CST    0.40   0.96    4   26    6  61.9  62.1 1018.8 -9.9 -9.999 -99.9 -99.99 -9.99
2020/02/15 23:24 CST    0.38   0.96    4   43    5  61.7  62.1 1018.6 -9.9 -9.999 -99.9 -99.99 -9.99
2020/02/15 23:30 CST    0.36   0.94    4   28    4  61.7  62.1 1018.7 -9.9 -9.999 -99.9 -99.99 -9.99
2020/02/15 23:36 CST    0.34   0.93    3   18    4  61.5  62.1 1018.7 -9.9 -9.999 -99.9 -99.99 -9.99
2020/02/15 23:42 CST    0.32   0.90    3   23    4  61.5  62.1 1018.7 -9.9 -9.999 -99.9 -99.99 -9.99
2020/02/15 23:48 CST    0.31   0.92    3   26    4  61.5  62.1 1018.7 -9.9 -9.999 -99.9 -99.99 -9.99
2020/02/15 23:54 CST    0.29   0.91    3   27    3  61.5  62.1 1018.6 -9.9 -9.999 -99.9 -99.99 -9.99
2020/02/16 00:00 CST    0.27   0.87    4   11    4  61.5  62.1 1018.7 -9.9 -9.999 -99.9 -99.99 -9.99
2020/02/16 00:06 CST    0.26   0.86    4   10    5  61.7  62.1 1018.7 -9.9 -9.999 -99.9 -99.99 -9.99
2020/02/16 00:12 CST    0.24   0.84    5    2    6  61.9  62.1 1018.8 -9.9 -9.999 -99.9 -99.99 -9.99
2020/02/16 00:18 CST    0.23   0.80    4    3    6  62.1  62.1 1018.7 -9.9 -9.999 -99.9 -99.99 -9.99
2020/02/16 00:24 CST    0.21   0.77    4   21    5  62.2  62.1 1018.6 -9.9 -9.999 -99.9 -99.99 -9.99
2020/02/16 00:30 CST    0.20   0.76    3   27    4  62.1  62.1 1018.6 -9.9 -9.999 -99.9 -99.99 -9.99
2020/02/16 00:36 CST    0.18   0.76    3   22    4  62.1  62.1 1018.5 -9.9 -9.999 -99.9 -99.99 -9.99
2020/02/16 00:42 CST    0.17   0.75    3   26    4  61.9  62.1 1018.4 -9.9 -9.999 -99.9 -99.99 -9.99
2020/02/16 00:48 CST    0.16   0.75    3   32    4  61.9  62.1 1018.4 -9.9 -9.999 -99.9 -99.99 -9.99
2020/02/16 00:54 CST    0.15   0.76    3   39    3  61.7  62.1 1018.3 -9.9 -9.999 -99.9 -99.99 -9.99
2020/02/16 01:00 CST    0.14   0.73    3   49    3  61.5  62.1 1018.2 -9.9 -9.999 -99.9 -99.99 -9.99
2020/02/16 01:06 CST    0.13   0.70    3   44    4  61.3  62.1 1018.1 -9.9 -9.999 -99.9 -99.99 -9.99
2020/02/16 01:12 CST    0.12   0.67    4   37    4  61.3  62.1 1018.1 -9.9 -9.999 -99.9 -99.99 -9.99
2020/02/16 01:18 CST    0.11   0.66    3   42    4  61.2  62.1 1018.0 -9.9 -9.999 -99.9 -99.99 -9.99
2020/02/16 01:24 CST    0.10   0.66    2   46    3  61.2  62.1 1018.0 -9.9 -9.999 -99.9 -99.99 -9.99
2020/02/16 01:30 CST    0.09   0.66    3   30    3  61.2  62.1 1017.9 -9.9 -9.999 -99.9 -99.99 -9.99
2020/02/16 01:36 CST    0.08   0.67    4   23    4  61.2  62.1 1018.0 -9.9 -9.999 -99.9 -99.99 -9.99
2020/02/16 01:42 CST    0.08   0.68    4   22    5  61.2  62.1 1018.0 -9.9 -9.999 -99.9 -99.99 -9.99
2020/02/16 01:48 CST    0.07   0.67    4   33    6  61.2  62.1 1017.9 -9.9 -9.999 -99.9 -99.99 -9.99
2020/02/16 01:54 CST    0.06   0.64    4   28    5  61.2  62.1 1017.9 -9.9 -9.999 -99.9 -99.99 -9.99
2020/02/16 02:00 CST    0.06   0.60    4   19    4  61.3  62.1 1017.9 -9.9 -9.999 -99.9 -99.99 -9.99
2020/02/16 02:06 CST    0.05   0.61    3   38    5  61.3  62.1 1017.7 -9.9 -9.999 -99.9 -99.99 -9.99
2020/02/16 02:12 CST    0.05   0.57    4   43    5  61.5  62.1 1017.6 -9.9 -9.999 -99.9 -99.99 -9.99
2020/02/16 02:18 CST    0.05   0.56    4   41    5  61.5  62.1 1017.5 -9.9 -9.999 -99.9 -99.99 -9.99
2020/02/16 02:24 CST    0.04   0.57    4   36    5  61.3  62.1 1017.4 -9.9 -9.999 -99.9 -99.99 -9.99
2020/02/16 02:30 CST    0.04   0.56    3   36    4  61.5  62.1 1017.5 -9.9 -9.999 -99.9 -99.99 -9.99
2020/02/16 02:36 CST    0.04   0.57    4   45    5  61.7  62.1 1017.4 -9.9 -9.999 -99.9 -99.99 -9.99
2020/02/16 02:42 CST    0.03   0.57    4   38    5  61.7  62.1 1017.4 -9.9 -9.999 -99.9 -99.99 -9.99
2020/02/16 02:48 CST    0.03   0.56    4   35    5  61.9  62.1 1017.3 -9.9 -9.999 -99.9 -99.99 -9.99
2020/02/16 02:54 CST    0.03   0.56    4   44    5  61.9  62.2 1017.2 -9.9 -9.999 -99.9 -99.99 -9.99
2020/02/16 03:00 CST    0.03   0.58    5   59    6  61.9  62.2 1017.1 -9.9 -9.999 -99.9 -99.99 -9.99
2020/02/16 03:06 CST    0.03   0.59    4   58    5  61.9  62.2 1017.1 -9.9 -9.999 -99.9 -99.99 -9.99
2020/02/16 03:12 CST    0.03   0.59    3   36    5  61.9  62.2 1017.2 -9.9 -9.999 -99.9 -99.99 -9.99
2020/02/16 03:18 CST    0.03   0.59    3   35    4  61.7  62.2 1017.1 -9.9 -9.999 -99.9 -99.99 -9.99
2020/02/16 03:24 CST    0.03   0.59    3   48    4  61.7  62.2 1017.1 -9.9 -9.999 -99.9 -99.99 -9.99
2020/02/16 03:30 CST    0.03   0.58    4   57    4  61.7  62.2 1016.9 -9.9 -9.999 -99.9 -99.99 -9.99
2020/02/16 03:36 CST    0.04   0.58    4   40    5  61.7  62.2 1016.8 -9.9 -9.999 -99.9 -99.99 -9.99
2020/02/16 03:42 CST    0.04   0.57    3   40    4  61.7  62.2 1017.0 -9.9 -9.999 -99.9 -99.99 -9.99
2020/02/16 03:48 CST    0.05   0.60    3   29    4  61.7  62.2 1016.9 -9.9 -9.999 -99.9 -99.99 -9.99
2020/02/16 03:54 CST    0.05   0.61    4   42    5  61.9  62.2 1016.9 -9.9 -9.999 -99.9 -99.99 -9.99
2020/02/16 04:00 CST    0.06   0.63    4   32    5  61.9  62.2 1017.0 -9.9 -9.999 -99.9 -99.99 -9.99
2020/02/16 04:06 CST    0.06   0.63    3   32    5  61.9  62.2 1017.0 -9.9 -9.999 -99.9 -99.99 -9.99
2020/02/16 04:12 CST    0.07   0.62    3   28    4  62.1  62.2 1017.1 -9.9 -9.999 -99.9 -99.99 -9.99
2020/02/16 04:18 CST    0.08   0.65    3   25    4  62.1  62.2 1017.2 -9.9 -9.999 -99.9 -99.99 -9.99
2020/02/16 04:24 CST    0.09   0.68    3   30    4  62.1  62.2 1017.1 -9.9 -9.999 -99.9 -99.99 -9.99
2020/02/16 04:30 CST    0.09   0.70    4   40    5  62.1  62.2 1017.0 -9.9 -9.999 -99.9 -99.99 -9.99
2020/02/16 04:36 CST    0.10   0.69    4   56    5  61.9  62.2 1016.9 -9.9 -9.999 -99.9 -99.99 -9.99
2020/02/16 04:42 CST    0.11   0.71    3   49    5  61.9  62.2 1016.9 -9.9 -9.999 -99.9 -99.99 -9.99
2020/02/16 04:48 CST    0.12   0.72    3   41    4  61.9  62.2 1016.9 -9.9 -9.999 -99.9 -99.99 -9.99
2020/02/16 04:54 CST    0.14   0.75    3   38    4  62.1  62.2 1017.0 -9.9 -9.999 -99.9 -99.99 -9.99
2020/02/16 05:00 CST    0.15   0.76    4   28    4  62.1  62.2 1017.0 -9.9 -9.999 -99.9 -99.99 -9.99
2020/02/16 05:06 CST    0.16   0.77    4   37    5  62.1  62.2 1017.0 -9.9 -9.999 -99.9 -99.99 -9.99
2020/02/16 05:12 CST    0.17   0.79    4   32    5  61.9  62.2 1017.1 -9.9 -9.999 -99.9 -99.99 -9.99
2020/02/16 05:18 CST    0.19   0.79    3   27    5  62.1  62.2 1017.0 -9.9 -9.999 -99.9 -99.99 -9.99
2020/02/16 05:24 CST    0.20   0.82    4   35    4  62.1  62.2 1017.1 -9.9 -9.999 -99.9 -99.99 -9.99
2020/02/16 05:30 CST    0.21   0.84    4   44    6  61.9  62.2 1017.1 -9.9 -9.999 -99.9 -99.99 -9.99
2020/02/16 05:36 CST    0.23   0.84    3   30    4  62.1  62.2 1017.1 -9.9 -9.999 -99.9 -99.99 -9.99
2020/02/16 05:42 CST    0.24   0.84    3   36    4  62.1  62.2 1017.2 -9.9 -9.999 -99.9 -99.99 -9.99
2020/02/16 05:48 CST    0.26   0.87    3   45    5  62.1  62.2 1017.3 -9.9 -9.999 -99.9 -99.99 -9.99
2020/02/16 05:54 CST    0.28   0.87    3   40    4  62.2  62.2 1017.3 -9.9 -9.999 -99.9 -99.99 -9.99
2020/02/16 06:00 CST    0.29   0.88    2   41    3  62.2  62.2 1017.4 -9.9 -9.999 -99.9 -99.99 -9.99
2020/02/16 06:06 CST    0.31   0.89    3   30    3  62.2  62.2 1017.4 -9.9 -9.999 -99.9 -99.99 -9.99
2020/02/16 06:12 CST    0.33   0.90    3   19    4  62.2  62.2 1017.4 -9.9 -9.999 -99.9 -99.99 -9.99
2020/02/16 06:18 CST    0.34   0.91    4   21    5  62.4  62.2 1017.5 -9.9 -9.999 -99.9 -99.99 -9.99
2020/02/16 06:24 CST    0.36   0.92    5   24    5  62.4  62.2 1017.5 -9.9 -9.999 -99.9 -99.99 -9.99
2020/02/16 06:30 CST    0.38   0.92    4   24    5  62.4  62.2 1017.4 -9.9 -9.999 -99.9 -99.99 -9.99
2020/02/16 06:36 CST    0.40   0.93    4   26    5  62.6  62.2 1017.6 -9.9 -9.999 -99.9 -99.99 -9.99
2020/02/16 06:42 CST    0.42   0.96    4   21    4  62.6  62.2 1017.7 -9.9 -9.999 -99.9 -99.99 -9.99
2020/02/16 06:48 CST    0.44   0.98    3   45    4  62.6  62.2 1017.7 -9.9 -9.999 -99.9 -99.99 -9.99
2020/02/16 06:54 CST    0.46   0.99    3   38    4  62.4  62.2 1017.8 -9.9 -9.999 -99.9 -99.99 -9.99
2020/02/16 07:00 CST    0.48   1.03    3   41    4  62.4  62.2 1017.8 -9.9 -9.999 -99.9 -99.99 -9.99
2020/02/16 07:06 CST    0.50   0.99    3   52    3  62.2  62.2 1017.9 -9.9 -9.999 -99.9 -99.99 -9.99
2020/02/16 07:12 CST    0.52   1.00    3   71    3  62.2  62.2 1017.8 -9.9 -9.999 -99.9 -99.99 -9.99
2020/02/16 07:18 CST    0.54   1.03    2   86    3  62.2  62.2 1017.7 -9.9 -9.999 -99.9 -99.99 -9.99
2020/02/16 07:24 CST    0.56   0.66    4   82    4  62.8  62.2 1017.6 -9.9 -9.999 -99.9 -99.99 -9.99
2020/02/16 07:30 CST    0.58   0.99    4   85    6  62.6  62.2 1017.5 -9.9 -9.999 -99.9 -99.99 -9.99
2020/02/16 07:36 CST    0.60   1.09    3   92    5  62.6  62.2 1017.5 -9.9 -9.999 -99.9 -99.99 -9.99
2020/02/16 07:42 CST    0.62   1.11    4  103    6  62.8  62.2 1017.5 -9.9 -9.999 -99.9 -99.99 -9.99
2020/02/16 07:48 CST    0.64   1.15    4   92    5  63.0  62.2 1017.6 -9.9 -9.999 -99.9 -99.99 -9.99
2020/02/16 07:54 CST    0.65   1.19    3   50    5  62.6  62.2 1017.7 -9.9 -9.999 -99.9 -99.99 -9.99
2020/02/16 08:00 CST    0.67   1.18    5   53    6  61.9  62.2 1017.7 -9.9 -9.999 -99.9 -99.99 -9.99
2020/02/16 08:06 CST    0.69   1.19    5   62    6  61.9  62.2 1017.7 -9.9 -9.999 -99.9 -99.99 -9.99
2020/02/16 08:12 CST    0.71   1.19    4   62    5  61.9  62.2 1017.7 -9.9 -9.999 -99.9 -99.99 -9.99
2020/02/16 08:18 CST    0.72   1.18    4   55    5  61.9  62.2 1017.9 -9.9 -9.999 -99.9 -99.99 -9.99
2020/02/16 08:24 CST    0.74   1.20    4   26    5  62.4  62.2 1018.0 -9.9 -9.999 -99.9 -99.99 -9.99
2020/02/16 08:30 CST    0.75   1.21    4   19    6  62.6  62.2 1017.9 -9.9 -9.999 -99.9 -99.99 -9.99
2020/02/16 08:36 CST    0.77   1.26    4   32    7  62.6  62.2 1018.0 -9.9 -9.999 -99.9 -99.99 -9.99
2020/02/16 08:42 CST    0.78   1.28    5   36    6  62.6  62.2 1018.0 -9.9 -9.999 -99.9 -99.99 -9.99
2020/02/16 08:48 CST    0.80   1.31    5   39    6  62.6  62.1 1018.1 -9.9 -9.999 -99.9 -99.99 -9.99
2020/02/16 08:54 CST    0.81   1.32    5   38    6  62.6  62.1 1018.2 -9.9 -9.999 -99.9 -99.99 -9.99
2020/02/16 09:00 CST    0.82   1.31    4   23    6  63.0  62.1 1018.3 -9.9 -9.999 -99.9 -99.99 -9.99
2020/02/16 09:06 CST    0.84   1.33    4   40    5  63.1  62.1 1018.4 -9.9 -9.999 -99.9 -99.99 -9.99
2020/02/16 09:12 CST    0.85   1.37    4   35    4  63.3  62.1 1018.3 -9.9 -9.999 -99.9 -99.99 -9.99
2020/02/16 09:18 CST    0.86   1.39    4   43    5  63.7  62.1 1018.4 -9.9 -9.999 -99.9 -99.99 -9.99
2020/02/16 09:24 CST    0.87   1.39    4   57    4  63.7  62.1 1018.4 -9.9 -9.999 -99.9 -99.99 -9.99
2020/02/16 09:30 CST    0.88   1.40    5   66    5  63.5  62.1 1018.4 -9.9 -9.999 -99.9 -99.99 -9.99
2020/02/16 09:36 CST    0.89   1.40    3   56    5  63.5  62.1 1018.4 -9.9 -9.999 -99.9 -99.99 -9.99
2020/02/16 09:42 CST    0.90   1.38    4   70    4  63.5  62.1 1018.4 -9.9 -9.999 -99.9 -99.99 -9.99
2020/02/16 09:48 CST    0.91   1.39    3   66    4  63.5  62.1 1018.4 -9.9 -9.999 -99.9 -99.99 -9.99
2020/02/16 09:54 CST    0.92   1.39    4   46    4  63.3  62.1 1018.4 -9.9 -9.999 -99.9 -99.99 -9.99
2020/02/16 10:00 CST    0.93   1.40    5   62    5  63.0  62.1 1018.4 -9.9 -9.999 -99.9 -99.99 -9.99
2020/02/16 10:06 CST    0.94   1.40    4   63    5  63.3  62.1 1018.4 -9.9 -9.999 -99.9 -99.99 -9.99
2020/02/16 10:12 CST    0.95   1.42    3   84    4  63.9  62.1 1018.3 -9.9 -9.999 -99.9 -99.99 -9.99
2020/02/16 10:18 CST    0.96   1.42    4   91    5  64.0  62.1 1018.3 -9.9 -9.999 -99.9 -99.99 -9.99
2020/02/16 10:24 CST    0.96   1.42    4   78    6  63.9  62.1 1018.3 -9.9 -9.999 -99.9 -99.99 -9.99
2020/02/16 10:30 CST    0.97   1.42    4   53    5  63.7  62.1 1018.3 -9.9 -9.999 -99.9 -99.99 -9.99
2020/02/16 10:36 CST    0.98   1.44    5   54    5  63.1  62.1 1018.3 -9.9 -9.999 -99.9 -99.99 -9.99
2020/02/16 10:42 CST    0.98   1.45    4   62    5  63.5  62.1 1018.3 -9.9 -9.999 -99.9 -99.99 -9.99
2020/02/16 10:48 CST    0.99   1.45    4   52    5  63.7  62.1 1018.4 -9.9 -9.999 -99.9 -99.99 -9.99
2020/02/16 10:54 CST    0.99   1.45    5   67    5  64.0  62.1 1018.4 -9.9 -9.999 -99.9 -99.99 -9.99
2020/02/16 11:00 CST    1.00   1.43    4   54    5  63.9  62.1 1018.2 -9.9 -9.999 -99.9 -99.99 -9.99
2020/02/16 11:06 CST    1.00   1.42    4   63    5  63.9  62.1 1018.1 -9.9 -9.999 -99.9 -99.99 -9.99
2020/02/16 11:12 CST    1.00   1.40    4   60    5  64.2  62.1 1018.2 -9.9 -9.999 -99.9 -99.99 -9.99
2020/02/16 11:18 CST    1.01   1.40    4   70    5  64.0  62.1 1018.0 -9.9 -9.999 -99.9 -99.99 -9.99
2020/02/16 11:24 CST    1.01   1.42    4   70    5  64.4  62.1 1017.9 -9.9 -9.999 -99.9 -99.99 -9.99
2020/02/16 11:30 CST    1.01   1.42    4   66    4  64.2  62.1 1017.9 -9.9 -9.999 -99.9 -99.99 -9.99
2020/02/16 11:36 CST    1.01   1.43    4   63    5  64.4  62.1 1017.7 -9.9 -9.999 -99.9 -99.99 -9.99
2020/02/16 11:42 CST    1.02   1.43    4   68    5  64.4  62.1 1017.6 -9.9 -9.999 -99.9 -99.99 -9.99
2020/02/16 11:48 CST    1.02   1.45    4   63    4  64.4  62.1 1017.5 -9.9 -9.999 -99.9 -99.99 -9.99
2020/02/16 11:54 CST    1.02   1.44    4   59    5  64.4  62.2 1017.5 -9.9 -9.999 -99.9 -99.99 -9.99
2020/02/16 12:00 CST    1.02   1.45    4   49    5  64.4  62.2 1017.4 -9.9 -9.999 -99.9 -99.99 -9.99
2020/02/16 12:06 CST    1.02   1.44    5   50    5  64.9  62.2 1017.4 -9.9 -9.999 -99.9 -99.99 -9.99
2020/02/16 12:12 CST    1.02   1.44    5   52    5  64.9  62.2 1017.3 -9.9 -9.999 -99.9 -99.99 -9.99
2020/02/16 12:18 CST    1.02   1.43    4   55    5  65.1  62.2 1017.2 -9.9 -9.999 -99.9 -99.99 -9.99
2020/02/16 12:24 CST    1.02   1.42    4   53    5  65.1  62.2 1017.1 -9.9 -9.999 -99.9 -99.99 -9.99
2020/02/16 12:30 CST    1.02   1.46    4   68    5  64.9  62.2 1017.0 -9.9 -9.999 -99.9 -99.99 -9.99
2020/02/16 12:36 CST    1.02   1.45    5   75    5  65.3  62.2 1016.9 -9.9 -9.999 -99.9 -99.99 -9.99
2020/02/16 12:42 CST    1.02   1.43    4   63    5  65.3  62.2 1016.8 -9.9 -9.999 -99.9 -99.99 -9.99
2020/02/16 12:48 CST    1.02   1.42    5   59    5  65.5  62.2 1016.9 -9.9 -9.999 -99.9 -99.99 -9.99
2020/02/16 12:54 CST    1.02   1.43    5   67    6  65.7  62.2 1016.8 -9.9 -9.999 -99.9 -99.99 -9.99
2020/02/16 13:00 CST    1.02   1.44    6   66    7  65.7  62.2 1016.6 -9.9 -9.999 -99.9 -99.99 -9.99
2020/02/16 13:06 CST    1.02   1.43    6   66    7  65.8  62.2 1016.4 -9.9 -9.999 -99.9 -99.99 -9.99
2020/02/16 13:12 CST    1.02   1.44    5   72    6  66.4  62.2 1016.3 -9.9 -9.999 -99.9 -99.99 -9.99
2020/02/16 13:18 CST    1.03   1.46    5   84    6  66.4  62.2 1016.3 -9.9 -9.999 -99.9 -99.99 -9.99
2020/02/16 13:24 CST    1.03   1.44    5   86    6  66.6  62.2 1016.1 -9.9 -9.999 -99.9 -99.99 -9.99
2020/02/16 13:30 CST    1.03   1.44    6   89    7  66.4  62.2 1016.0 -9.9 -9.999 -99.9 -99.99 -9.99
2020/02/16 13:36 CST    1.03   1.45    6   83    7  66.2  62.2 1015.8 -9.9 -9.999 -99.9 -99.99 -9.99
2020/02/16 13:42 CST    1.03   1.46    6   68    6  66.0  62.2 1015.8 -9.9 -9.999 -99.9 -99.99 -9.99
2020/02/16 13:48 CST    1.03   1.46    5   79    7  66.7  62.2 1015.7 -9.9 -9.999 -99.9 -99.99 -9.99
2020/02/16 13:54 CST    1.04   1.47    5   70    6  66.6  62.2 1015.6 -9.9 -9.999 -99.9 -99.99 -9.99
2020/02/16 14:00 CST    1.04   1.44    5   71    7  66.6  62.4 1015.4 -9.9 -9.999 -99.9 -99.99 -9.99
2020/02/16 14:06 CST    1.04   1.43    5   73    7  66.6  62.4 1015.3 -9.9 -9.999 -99.9 -99.99 -9.99
2020/02/16 14:12 CST    1.04   1.44    7   59    8  65.8  62.4 1015.2 -9.9 -9.999 -99.9 -99.99 -9.99
2020/02/16 14:18 CST    1.04   1.45    7   69    8  66.0  62.4 1015.1 -9.9 -9.999 -99.9 -99.99 -9.99
2020/02/16 14:24 CST    1.04   1.48    5   62    8  66.0  62.4 1015.1 -9.9 -9.999 -99.9 -99.99 -9.99
2020/02/16 14:30 CST    1.04   1.48    6   68    7  66.2  62.4 1015.0 -9.9 -9.999 -99.9 -99.99 -9.99
2020/02/16 14:36 CST    1.04   1.49    4   78    7  66.6  62.4 1015.0 -9.9 -9.999 -99.9 -99.99 -9.99
2020/02/16 14:42 CST    1.04   1.50    5   65    6  67.1  62.4 1014.9 -9.9 -9.999 -99.9 -99.99 -9.99
2020/02/16 14:48 CST    1.04   1.49    5   65    6  67.3  62.4 1014.9 -9.9 -9.999 -99.9 -99.99 -9.99
2020/02/16 14:54 CST    1.04   1.50    5   76    6  68.5  62.4 1014.7 -9.9 -9.999 -99.9 -99.99 -9.99
2020/02/16 15:00 CST    1.04   1.51    7   61    7  68.2  62.4 1014.6 -9.9 -9.999 -99.9 -99.99 -9.99
2020/02/16 15:06 CST    1.04   1.50    7   64    8  68.0  62.4 1014.5 -9.9 -9.999 -99.9 -99.99 -9.99
2020/02/16 15:12 CST    1.03   1.51    7   78    8  67.8  62.4 1014.4 -9.9 -9.999 -99.9 -99.99 -9.99
2020/02/16 15:18 CST    1.03   1.47    7   82    8  67.3  62.4 1014.4 -9.9 -9.999 -99.9 -99.99 -9.99
2020/02/16 15:24 CST    1.03   1.46    8   84    9  66.6  62.4 1014.3 -9.9 -9.999 -99.9 -99.99 -9.99
2020/02/16 15:30 CST    1.03   1.50    6   94    9  66.7  62.4 1014.2 -9.9 -9.999 -99.9 -99.99 -9.99
2020/02/16 15:36 CST    1.02   1.54    8   91   10  66.4  62.6 1014.1 -9.9 -9.999 -99.9 -99.99 -9.99
2020/02/16 15:42 CST    1.02   1.51    5  101    9  67.1  62.6 1014.2 -9.9 -9.999 -99.9 -99.99 -9.99
2020/02/16 15:48 CST    1.02   1.54    8   94   10  66.7  62.6 1014.2 -9.9 -9.999 -99.9 -99.99 -9.99
2020/02/16 15:54 CST    1.02   1.51    9  104   11  66.2  62.6 1014.3 -9.9 -9.999 -99.9 -99.99 -9.99
2020/02/16 16:00 CST    1.01   1.55    8  103   12  66.0  62.6 1014.2 -9.9 -9.999 -99.9 -99.99 -9.99
2020/02/16 16:06 CST    1.01   1.53    7   92   11  66.6  62.6 1014.3 -9.9 -9.999 -99.9 -99.99 -9.99
2020/02/16 16:12 CST    1.01   1.57    8   92   10  66.4  62.6 1014.3 -9.9 -9.999 -99.9 -99.99 -9.99
2020/02/16 16:18 CST    1.00   1.57    8   85    9  65.8  62.6 1014.4 -9.9 -9.999 -99.9 -99.99 -9.99
2020/02/16 16:24 CST    1.00   1.56    6   88    9  65.8  62.6 1014.4 -9.9 -9.999 -99.9 -99.99 -9.99
2020/02/16 16:30 CST    1.00   1.54    8   84   10  66.0  62.6 1014.3 -9.9 -9.999 -99.9 -99.99 -9.99
2020/02/16 16:36 CST    0.99   1.51    9  100   11  66.2  62.8 1014.2 -9.9 -9.999 -99.9 -99.99 -9.99
2020/02/16 16:42 CST    0.99   1.47    8  103   12  66.2  62.8 1014.2 -9.9 -9.999 -99.9 -99.99 -9.99
2020/02/16 16:48 CST    0.99   1.44    9  103   11  66.4  62.8 1014.0 -9.9 -9.999 -99.9 -99.99 -9.99
2020/02/16 16:54 CST    0.98 -99.99 -999 -999 -999 -99.9 -99.9 -999.9 -9.9 -9.999 -99.9 -99.99 -9.99
2020/02/16 17:00 CST    0.98 -99.99 -999 -999 -999 -99.9 -99.9 -999.9 -9.9 -9.999 -99.9 -99.99 -9.99